<?xml version="1.0" encoding="utf-8"?>
<gpx xmlns:xsi="http://www.w3.org/2001/XMLSchema-instance" xmlns:xsd="http://www.w3.org/2001/XMLSchema" version="1.1" creator="Shapelink.com" xmlns="http://www.topografix.com/GPX/1/1" xmlns:gpxtpx="http://www.garmin.com/xmlschemas/TrackPointExtension/v1">
  <metadata>
    <name>Längdskidåkning - Klassisk 15.24 km, 2011-01-17</name>
    <desc></desc>
    <author><name>Alexander Engvall</name></author> 
    <time>2011-01-17T19:50:35Z</time>
  </metadata>
  <trk>
    <name>Längdskidåkning - Klassisk 15.24 km, 2011-01-17</name>
    <trkseg>
      <trkpt lat="59.5226299" lon="17.8816491">
        <ele>51.5679</ele>
        <time>2011-01-17T19:50:35Z</time>
      </trkpt>
      <trkpt lat="59.5227022" lon="17.881621">
        <ele>53.4905</ele>
        <time>2011-01-17T19:50:40Z</time>
      </trkpt>
      <trkpt lat="59.5228102" lon="17.881576">
        <ele>52.0486</ele>
        <time>2011-01-17T19:50:44Z</time>
      </trkpt>
      <trkpt lat="59.5230054" lon="17.8814466">
        <ele>52.5292</ele>
        <time>2011-01-17T19:50:50Z</time>
      </trkpt>
      <trkpt lat="59.5231249" lon="17.8812925">
        <ele>51.5679</ele>
        <time>2011-01-17T19:50:55Z</time>
      </trkpt>
      <trkpt lat="59.5231892" lon="17.8811799">
        <ele>52.0486</ele>
        <time>2011-01-17T19:50:59Z</time>
      </trkpt>
      <trkpt lat="59.5232608" lon="17.8810456">
        <ele>52.0486</ele>
        <time>2011-01-17T19:51:03Z</time>
      </trkpt>
      <trkpt lat="59.5233976" lon="17.880946">
        <ele>52.0486</ele>
        <time>2011-01-17T19:51:09Z</time>
      </trkpt>
      <trkpt lat="59.5234979" lon="17.8808745">
        <ele>52.0486</ele>
        <time>2011-01-17T19:51:13Z</time>
      </trkpt>
      <trkpt lat="59.5235514" lon="17.8808532">
        <ele>50.6066</ele>
        <time>2011-01-17T19:51:15Z</time>
      </trkpt>
      <trkpt lat="59.5236338" lon="17.8808046">
        <ele>50.6066</ele>
        <time>2011-01-17T19:51:19Z</time>
      </trkpt>
      <trkpt lat="59.5238011" lon="17.8807814">
        <ele>51.5679</ele>
        <time>2011-01-17T19:51:24Z</time>
      </trkpt>
      <trkpt lat="59.5239182" lon="17.8806851">
        <ele>51.5679</ele>
        <time>2011-01-17T19:51:28Z</time>
      </trkpt>
      <trkpt lat="59.5241015" lon="17.8804706">
        <ele>52.0486</ele>
        <time>2011-01-17T19:51:33Z</time>
      </trkpt>
      <trkpt lat="59.5242533" lon="17.8803582">
        <ele>50.6066</ele>
        <time>2011-01-17T19:51:38Z</time>
      </trkpt>
      <trkpt lat="59.5243698" lon="17.8802399">
        <ele>49.6453</ele>
        <time>2011-01-17T19:51:42Z</time>
      </trkpt>
      <trkpt lat="59.524431" lon="17.8801903">
        <ele>48.2034</ele>
        <time>2011-01-17T19:51:46Z</time>
      </trkpt>
      <trkpt lat="59.5245994" lon="17.8801879">
        <ele>49.1646</ele>
        <time>2011-01-17T19:51:51Z</time>
      </trkpt>
      <trkpt lat="59.5248077" lon="17.8802541">
        <ele>50.6066</ele>
        <time>2011-01-17T19:51:56Z</time>
      </trkpt>
      <trkpt lat="59.5250308" lon="17.8803187">
        <ele>51.0872</ele>
        <time>2011-01-17T19:52:01Z</time>
      </trkpt>
      <trkpt lat="59.5251146" lon="17.8803432">
        <ele>50.126</ele>
        <time>2011-01-17T19:52:03Z</time>
      </trkpt>
      <trkpt lat="59.5253458" lon="17.8805062">
        <ele>51.0872</ele>
        <time>2011-01-17T19:52:09Z</time>
      </trkpt>
      <trkpt lat="59.5255034" lon="17.8805923">
        <ele>51.0872</ele>
        <time>2011-01-17T19:52:13Z</time>
      </trkpt>
      <trkpt lat="59.5257053" lon="17.880704">
        <ele>51.5679</ele>
        <time>2011-01-17T19:52:17Z</time>
      </trkpt>
      <trkpt lat="59.5257845" lon="17.8807093">
        <ele>51.0872</ele>
        <time>2011-01-17T19:52:19Z</time>
      </trkpt>
      <trkpt lat="59.5259456" lon="17.8807726">
        <ele>50.6066</ele>
        <time>2011-01-17T19:52:23Z</time>
      </trkpt>
      <trkpt lat="59.5260011" lon="17.88079">
        <ele>50.6066</ele>
        <time>2011-01-17T19:52:25Z</time>
      </trkpt>
      <trkpt lat="59.526169" lon="17.8808399">
        <ele>50.6066</ele>
        <time>2011-01-17T19:52:31Z</time>
      </trkpt>
      <trkpt lat="59.5262415" lon="17.880812">
        <ele>49.1646</ele>
        <time>2011-01-17T19:52:35Z</time>
      </trkpt>
      <trkpt lat="59.5263376" lon="17.8808238">
        <ele>50.6066</ele>
        <time>2011-01-17T19:52:39Z</time>
      </trkpt>
      <trkpt lat="59.5264538" lon="17.8808477">
        <ele>52.0486</ele>
        <time>2011-01-17T19:52:43Z</time>
      </trkpt>
      <trkpt lat="59.5265795" lon="17.8809169">
        <ele>51.5679</ele>
        <time>2011-01-17T19:52:48Z</time>
      </trkpt>
      <trkpt lat="59.5267102" lon="17.8810861">
        <ele>50.6066</ele>
        <time>2011-01-17T19:52:54Z</time>
      </trkpt>
      <trkpt lat="59.5267579" lon="17.881145">
        <ele>49.6453</ele>
        <time>2011-01-17T19:52:59Z</time>
      </trkpt>
      <trkpt lat="59.5267971" lon="17.881172">
        <ele>51.5679</ele>
        <time>2011-01-17T19:53:04Z</time>
      </trkpt>
      <trkpt lat="59.5268468" lon="17.8812237">
        <ele>53.4905</ele>
        <time>2011-01-17T19:53:08Z</time>
      </trkpt>
      <trkpt lat="59.5268875" lon="17.881378">
        <ele>55.4131</ele>
        <time>2011-01-17T19:53:13Z</time>
      </trkpt>
      <trkpt lat="59.5269143" lon="17.8814691">
        <ele>56.3745</ele>
        <time>2011-01-17T19:53:16Z</time>
      </trkpt>
      <trkpt lat="59.5269905" lon="17.8817277">
        <ele>56.3745</ele>
        <time>2011-01-17T19:53:22Z</time>
      </trkpt>
      <trkpt lat="59.5270304" lon="17.8818571">
        <ele>53.4905</ele>
        <time>2011-01-17T19:53:26Z</time>
      </trkpt>
      <trkpt lat="59.5271201" lon="17.8820045">
        <ele>55.8938</ele>
        <time>2011-01-17T19:53:31Z</time>
      </trkpt>
      <trkpt lat="59.5272343" lon="17.8820506">
        <ele>55.8938</ele>
        <time>2011-01-17T19:53:36Z</time>
      </trkpt>
      <trkpt lat="59.5272999" lon="17.882066">
        <ele>56.3745</ele>
        <time>2011-01-17T19:53:40Z</time>
      </trkpt>
      <trkpt lat="59.5274024" lon="17.8819204">
        <ele>56.3745</ele>
        <time>2011-01-17T19:53:46Z</time>
      </trkpt>
      <trkpt lat="59.527424" lon="17.881893">
        <ele>55.4131</ele>
        <time>2011-01-17T19:53:47Z</time>
      </trkpt>
      <trkpt lat="59.5275793" lon="17.8816978">
        <ele>56.3745</ele>
        <time>2011-01-17T19:53:53Z</time>
      </trkpt>
      <trkpt lat="59.5276458" lon="17.881518">
        <ele>57.3358</ele>
        <time>2011-01-17T19:53:56Z</time>
      </trkpt>
      <trkpt lat="59.527644" lon="17.8811725">
        <ele>55.8938</ele>
        <time>2011-01-17T19:53:59Z</time>
      </trkpt>
      <trkpt lat="59.5277937" lon="17.8811409">
        <ele>54.9324</ele>
        <time>2011-01-17T19:54:03Z</time>
      </trkpt>
      <trkpt lat="59.5278723" lon="17.8812371">
        <ele>54.4518</ele>
        <time>2011-01-17T19:54:04Z</time>
      </trkpt>
      <trkpt lat="59.5279846" lon="17.881344">
        <ele>54.9324</ele>
        <time>2011-01-17T19:54:06Z</time>
      </trkpt>
      <trkpt lat="59.5281715" lon="17.8814278">
        <ele>55.4131</ele>
        <time>2011-01-17T19:54:11Z</time>
      </trkpt>
      <trkpt lat="59.5283052" lon="17.8814103">
        <ele>54.4518</ele>
        <time>2011-01-17T19:54:15Z</time>
      </trkpt>
      <trkpt lat="59.5284818" lon="17.8813632">
        <ele>55.8938</ele>
        <time>2011-01-17T19:54:20Z</time>
      </trkpt>
      <trkpt lat="59.528571" lon="17.8813527">
        <ele>55.4131</ele>
        <time>2011-01-17T19:54:24Z</time>
      </trkpt>
      <trkpt lat="59.5286609" lon="17.8814036">
        <ele>55.4131</ele>
        <time>2011-01-17T19:54:28Z</time>
      </trkpt>
      <trkpt lat="59.5287816" lon="17.8814988">
        <ele>54.4518</ele>
        <time>2011-01-17T19:54:33Z</time>
      </trkpt>
      <trkpt lat="59.5288895" lon="17.8815489">
        <ele>54.9324</ele>
        <time>2011-01-17T19:54:37Z</time>
      </trkpt>
      <trkpt lat="59.5290994" lon="17.8817071">
        <ele>53.0098</ele>
        <time>2011-01-17T19:54:42Z</time>
      </trkpt>
      <trkpt lat="59.5292345" lon="17.8817755">
        <ele>52.0486</ele>
        <time>2011-01-17T19:54:46Z</time>
      </trkpt>
      <trkpt lat="59.5293574" lon="17.8818481">
        <ele>52.0486</ele>
        <time>2011-01-17T19:54:50Z</time>
      </trkpt>
      <trkpt lat="59.5295042" lon="17.8819465">
        <ele>50.6066</ele>
        <time>2011-01-17T19:54:55Z</time>
      </trkpt>
      <trkpt lat="59.5296462" lon="17.8820764">
        <ele>53.4905</ele>
        <time>2011-01-17T19:55:01Z</time>
      </trkpt>
      <trkpt lat="59.5297266" lon="17.8821464">
        <ele>52.0486</ele>
        <time>2011-01-17T19:55:06Z</time>
      </trkpt>
      <trkpt lat="59.5298468" lon="17.8822286">
        <ele>53.0098</ele>
        <time>2011-01-17T19:55:10Z</time>
      </trkpt>
      <trkpt lat="59.5299601" lon="17.8824215">
        <ele>51.5679</ele>
        <time>2011-01-17T19:55:15Z</time>
      </trkpt>
      <trkpt lat="59.5300281" lon="17.8825606">
        <ele>51.0872</ele>
        <time>2011-01-17T19:55:19Z</time>
      </trkpt>
      <trkpt lat="59.5302099" lon="17.8827027">
        <ele>53.0098</ele>
        <time>2011-01-17T19:55:25Z</time>
      </trkpt>
      <trkpt lat="59.5303886" lon="17.8826904">
        <ele>50.6066</ele>
        <time>2011-01-17T19:55:30Z</time>
      </trkpt>
      <trkpt lat="59.530643" lon="17.8831053">
        <ele>51.0872</ele>
        <time>2011-01-17T19:55:33Z</time>
      </trkpt>
      <trkpt lat="59.5307229" lon="17.8832461">
        <ele>53.0098</ele>
        <time>2011-01-17T19:55:34Z</time>
      </trkpt>
      <trkpt lat="59.5308031" lon="17.8833885">
        <ele>52.0486</ele>
        <time>2011-01-17T19:55:35Z</time>
      </trkpt>
      <trkpt lat="59.5310937" lon="17.8839324">
        <ele>53.4905</ele>
        <time>2011-01-17T19:55:40Z</time>
      </trkpt>
      <trkpt lat="59.5312747" lon="17.8838818">
        <ele>51.5679</ele>
        <time>2011-01-17T19:55:43Z</time>
      </trkpt>
      <trkpt lat="59.5314617" lon="17.8836279">
        <ele>51.0872</ele>
        <time>2011-01-17T19:55:46Z</time>
      </trkpt>
      <trkpt lat="59.5315458" lon="17.8834652">
        <ele>49.6453</ele>
        <time>2011-01-17T19:55:48Z</time>
      </trkpt>
      <trkpt lat="59.5316794" lon="17.8831228">
        <ele>49.1646</ele>
        <time>2011-01-17T19:55:52Z</time>
      </trkpt>
      <trkpt lat="59.5317606" lon="17.8828358">
        <ele>47.7225</ele>
        <time>2011-01-17T19:55:57Z</time>
      </trkpt>
      <trkpt lat="59.5318128" lon="17.8826021">
        <ele>44.8386</ele>
        <time>2011-01-17T19:56:02Z</time>
      </trkpt>
      <trkpt lat="59.5318928" lon="17.8823256">
        <ele>41.9547</ele>
        <time>2011-01-17T19:56:08Z</time>
      </trkpt>
      <trkpt lat="59.5319333" lon="17.8820947">
        <ele>41.474</ele>
        <time>2011-01-17T19:56:13Z</time>
      </trkpt>
      <trkpt lat="59.5319412" lon="17.8820666">
        <ele>40.9934</ele>
        <time>2011-01-17T19:56:14Z</time>
      </trkpt>
      <trkpt lat="59.5320244" lon="17.8818484">
        <ele>40.0321</ele>
        <time>2011-01-17T19:56:21Z</time>
      </trkpt>
      <trkpt lat="59.5320992" lon="17.8816761">
        <ele>38.5901</ele>
        <time>2011-01-17T19:56:27Z</time>
      </trkpt>
      <trkpt lat="59.5321502" lon="17.8814538">
        <ele>37.1481</ele>
        <time>2011-01-17T19:56:32Z</time>
      </trkpt>
      <trkpt lat="59.5322183" lon="17.8812705">
        <ele>34.2642</ele>
        <time>2011-01-17T19:56:35Z</time>
      </trkpt>
      <trkpt lat="59.5322947" lon="17.8810166">
        <ele>35.2255</ele>
        <time>2011-01-17T19:56:40Z</time>
      </trkpt>
      <trkpt lat="59.5323742" lon="17.880828">
        <ele>34.7449</ele>
        <time>2011-01-17T19:56:45Z</time>
      </trkpt>
      <trkpt lat="59.532473" lon="17.8806436">
        <ele>36.1868</ele>
        <time>2011-01-17T19:56:50Z</time>
      </trkpt>
      <trkpt lat="59.5325499" lon="17.8803973">
        <ele>33.7834</ele>
        <time>2011-01-17T19:56:55Z</time>
      </trkpt>
      <trkpt lat="59.532553" lon="17.8803415">
        <ele>33.7834</ele>
        <time>2011-01-17T19:56:56Z</time>
      </trkpt>
      <trkpt lat="59.5326274" lon="17.8801137">
        <ele>35.7061</ele>
        <time>2011-01-17T19:57:01Z</time>
      </trkpt>
      <trkpt lat="59.5326472" lon="17.879937">
        <ele>37.6287</ele>
        <time>2011-01-17T19:57:04Z</time>
      </trkpt>
      <trkpt lat="59.5327445" lon="17.8796352">
        <ele>39.0707</ele>
        <time>2011-01-17T19:57:09Z</time>
      </trkpt>
      <trkpt lat="59.5328386" lon="17.8794696">
        <ele>38.5901</ele>
        <time>2011-01-17T19:57:13Z</time>
      </trkpt>
      <trkpt lat="59.5329451" lon="17.8793173">
        <ele>37.6287</ele>
        <time>2011-01-17T19:57:18Z</time>
      </trkpt>
      <trkpt lat="59.5329564" lon="17.8792575">
        <ele>37.6287</ele>
        <time>2011-01-17T19:57:19Z</time>
      </trkpt>
      <trkpt lat="59.5329891" lon="17.8788253">
        <ele>37.1481</ele>
        <time>2011-01-17T19:57:25Z</time>
      </trkpt>
      <trkpt lat="59.5330173" lon="17.8784855">
        <ele>35.2255</ele>
        <time>2011-01-17T19:57:28Z</time>
      </trkpt>
      <trkpt lat="59.5331434" lon="17.8783731">
        <ele>36.1868</ele>
        <time>2011-01-17T19:57:32Z</time>
      </trkpt>
      <trkpt lat="59.5331603" lon="17.8783419">
        <ele>36.6675</ele>
        <time>2011-01-17T19:57:33Z</time>
      </trkpt>
      <trkpt lat="59.533205" lon="17.8781727">
        <ele>36.6675</ele>
        <time>2011-01-17T19:57:37Z</time>
      </trkpt>
      <trkpt lat="59.5332561" lon="17.8779816">
        <ele>36.6675</ele>
        <time>2011-01-17T19:57:42Z</time>
      </trkpt>
      <trkpt lat="59.5332886" lon="17.8776785">
        <ele>36.1868</ele>
        <time>2011-01-17T19:57:46Z</time>
      </trkpt>
      <trkpt lat="59.5332956" lon="17.8775898">
        <ele>36.6675</ele>
        <time>2011-01-17T19:57:47Z</time>
      </trkpt>
      <trkpt lat="59.5334936" lon="17.8774335">
        <ele>37.1481</ele>
        <time>2011-01-17T19:57:51Z</time>
      </trkpt>
      <trkpt lat="59.5336049" lon="17.8772501">
        <ele>38.1094</ele>
        <time>2011-01-17T19:57:54Z</time>
      </trkpt>
      <trkpt lat="59.5337111" lon="17.8771304">
        <ele>35.2255</ele>
        <time>2011-01-17T19:57:58Z</time>
      </trkpt>
      <trkpt lat="59.5338068" lon="17.8770138">
        <ele>34.7449</ele>
        <time>2011-01-17T19:58:02Z</time>
      </trkpt>
      <trkpt lat="59.5339814" lon="17.8768558">
        <ele>33.7834</ele>
        <time>2011-01-17T19:58:07Z</time>
      </trkpt>
      <trkpt lat="59.5341238" lon="17.8768751">
        <ele>33.7834</ele>
        <time>2011-01-17T19:58:11Z</time>
      </trkpt>
      <trkpt lat="59.5342887" lon="17.8769155">
        <ele>33.3029</ele>
        <time>2011-01-17T19:58:16Z</time>
      </trkpt>
      <trkpt lat="59.5344235" lon="17.8767601">
        <ele>32.3416</ele>
        <time>2011-01-17T19:58:22Z</time>
      </trkpt>
      <trkpt lat="59.5345281" lon="17.8767076">
        <ele>33.7834</ele>
        <time>2011-01-17T19:58:26Z</time>
      </trkpt>
      <trkpt lat="59.5345677" lon="17.8766788">
        <ele>33.7834</ele>
        <time>2011-01-17T19:58:28Z</time>
      </trkpt>
      <trkpt lat="59.5346265" lon="17.8765659">
        <ele>33.7834</ele>
        <time>2011-01-17T19:58:32Z</time>
      </trkpt>
      <trkpt lat="59.534768" lon="17.876462">
        <ele>33.3029</ele>
        <time>2011-01-17T19:58:38Z</time>
      </trkpt>
      <trkpt lat="59.5349212" lon="17.8763667">
        <ele>33.7834</ele>
        <time>2011-01-17T19:58:42Z</time>
      </trkpt>
      <trkpt lat="59.5351123" lon="17.8762403">
        <ele>34.7449</ele>
        <time>2011-01-17T19:58:47Z</time>
      </trkpt>
      <trkpt lat="59.5352191" lon="17.8761982">
        <ele>35.7061</ele>
        <time>2011-01-17T19:58:51Z</time>
      </trkpt>
      <trkpt lat="59.535366" lon="17.87623">
        <ele>35.7061</ele>
        <time>2011-01-17T19:58:55Z</time>
      </trkpt>
      <trkpt lat="59.5356157" lon="17.8763276">
        <ele>33.7834</ele>
        <time>2011-01-17T19:59:00Z</time>
      </trkpt>
      <trkpt lat="59.5359365" lon="17.8763647">
        <ele>31.3801</ele>
        <time>2011-01-17T19:59:06Z</time>
      </trkpt>
      <trkpt lat="59.536132" lon="17.8764392">
        <ele>31.3801</ele>
        <time>2011-01-17T19:59:10Z</time>
      </trkpt>
      <trkpt lat="59.536209" lon="17.8760419">
        <ele>30.8995</ele>
        <time>2011-01-17T19:59:14Z</time>
      </trkpt>
      <trkpt lat="59.5362602" lon="17.8758133">
        <ele>29.9381</ele>
        <time>2011-01-17T19:59:17Z</time>
      </trkpt>
      <trkpt lat="59.5363271" lon="17.8754644">
        <ele>27.0543</ele>
        <time>2011-01-17T19:59:23Z</time>
      </trkpt>
      <trkpt lat="59.5363683" lon="17.875259">
        <ele>23.209</ele>
        <time>2011-01-17T19:59:27Z</time>
      </trkpt>
      <trkpt lat="59.5364108" lon="17.8750746">
        <ele>19.8444</ele>
        <time>2011-01-17T19:59:31Z</time>
      </trkpt>
      <trkpt lat="59.5364468" lon="17.8748937">
        <ele>19.3638</ele>
        <time>2011-01-17T19:59:35Z</time>
      </trkpt>
      <trkpt lat="59.536487" lon="17.8747197">
        <ele>19.3638</ele>
        <time>2011-01-17T19:59:39Z</time>
      </trkpt>
      <trkpt lat="59.5365256" lon="17.8745269">
        <ele>18.4023</ele>
        <time>2011-01-17T19:59:44Z</time>
      </trkpt>
      <trkpt lat="59.5365307" lon="17.8744908">
        <ele>19.3638</ele>
        <time>2011-01-17T19:59:45Z</time>
      </trkpt>
      <trkpt lat="59.5365168" lon="17.8742554">
        <ele>19.8444</ele>
        <time>2011-01-17T19:59:51Z</time>
      </trkpt>
      <trkpt lat="59.5365082" lon="17.8742083">
        <ele>20.325</ele>
        <time>2011-01-17T19:59:52Z</time>
      </trkpt>
      <trkpt lat="59.5365085" lon="17.8741445">
        <ele>20.325</ele>
        <time>2011-01-17T19:59:54Z</time>
      </trkpt>
      <trkpt lat="59.5365041" lon="17.8740897">
        <ele>21.767</ele>
        <time>2011-01-17T19:59:56Z</time>
      </trkpt>
      <trkpt lat="59.5364893" lon="17.8738866">
        <ele>23.6896</ele>
        <time>2011-01-17T20:00:02Z</time>
      </trkpt>
      <trkpt lat="59.536481" lon="17.8737607">
        <ele>25.6123</ele>
        <time>2011-01-17T20:00:05Z</time>
      </trkpt>
      <trkpt lat="59.5364769" lon="17.8736867">
        <ele>31.8607</ele>
        <time>2011-01-17T20:00:09Z</time>
      </trkpt>
      <trkpt lat="59.5364328" lon="17.8735307">
        <ele>32.8223</ele>
        <time>2011-01-17T20:00:13Z</time>
      </trkpt>
      <trkpt lat="59.536412" lon="17.8734609">
        <ele>32.8223</ele>
        <time>2011-01-17T20:00:15Z</time>
      </trkpt>
      <trkpt lat="59.5362684" lon="17.8732821">
        <ele>38.1094</ele>
        <time>2011-01-17T20:00:21Z</time>
      </trkpt>
      <trkpt lat="59.5361319" lon="17.8731557">
        <ele>40.5128</ele>
        <time>2011-01-17T20:00:27Z</time>
      </trkpt>
      <trkpt lat="59.5360601" lon="17.8730825">
        <ele>39.0707</ele>
        <time>2011-01-17T20:00:30Z</time>
      </trkpt>
      <trkpt lat="59.5359397" lon="17.8729315">
        <ele>34.7449</ele>
        <time>2011-01-17T20:00:35Z</time>
      </trkpt>
      <trkpt lat="59.5358467" lon="17.8728046">
        <ele>33.7834</ele>
        <time>2011-01-17T20:00:39Z</time>
      </trkpt>
      <trkpt lat="59.5357944" lon="17.8726937">
        <ele>35.7061</ele>
        <time>2011-01-17T20:00:43Z</time>
      </trkpt>
      <trkpt lat="59.5357198" lon="17.872502">
        <ele>32.8223</ele>
        <time>2011-01-17T20:00:48Z</time>
      </trkpt>
      <trkpt lat="59.535665" lon="17.8723627">
        <ele>30.4188</ele>
        <time>2011-01-17T20:00:52Z</time>
      </trkpt>
      <trkpt lat="59.5355511" lon="17.8721835">
        <ele>28.9769</ele>
        <time>2011-01-17T20:00:56Z</time>
      </trkpt>
      <trkpt lat="59.535509" lon="17.8721072">
        <ele>29.4575</ele>
        <time>2011-01-17T20:00:58Z</time>
      </trkpt>
      <trkpt lat="59.5354279" lon="17.8719431">
        <ele>31.8607</ele>
        <time>2011-01-17T20:01:03Z</time>
      </trkpt>
      <trkpt lat="59.5353248" lon="17.8717754">
        <ele>30.8995</ele>
        <time>2011-01-17T20:01:07Z</time>
      </trkpt>
      <trkpt lat="59.5351717" lon="17.8714804">
        <ele>25.1317</ele>
        <time>2011-01-17T20:01:14Z</time>
      </trkpt>
      <trkpt lat="59.5350647" lon="17.871312">
        <ele>24.651</ele>
        <time>2011-01-17T20:01:19Z</time>
      </trkpt>
      <trkpt lat="59.5350228" lon="17.8712282">
        <ele>25.1317</ele>
        <time>2011-01-17T20:01:21Z</time>
      </trkpt>
      <trkpt lat="59.5349198" lon="17.8710542">
        <ele>26.5736</ele>
        <time>2011-01-17T20:01:25Z</time>
      </trkpt>
      <trkpt lat="59.5348096" lon="17.8708445">
        <ele>28.4962</ele>
        <time>2011-01-17T20:01:30Z</time>
      </trkpt>
      <trkpt lat="59.5347249" lon="17.8706948">
        <ele>28.0155</ele>
        <time>2011-01-17T20:01:34Z</time>
      </trkpt>
      <trkpt lat="59.5346802" lon="17.8705718">
        <ele>29.4575</ele>
        <time>2011-01-17T20:01:37Z</time>
      </trkpt>
      <trkpt lat="59.5345678" lon="17.8704201">
        <ele>28.4962</ele>
        <time>2011-01-17T20:01:42Z</time>
      </trkpt>
      <trkpt lat="59.5345265" lon="17.8703746">
        <ele>28.4962</ele>
        <time>2011-01-17T20:01:44Z</time>
      </trkpt>
      <trkpt lat="59.5343893" lon="17.8703637">
        <ele>27.5349</ele>
        <time>2011-01-17T20:01:49Z</time>
      </trkpt>
      <trkpt lat="59.5342378" lon="17.8703721">
        <ele>28.4962</ele>
        <time>2011-01-17T20:01:54Z</time>
      </trkpt>
      <trkpt lat="59.5341116" lon="17.8703222">
        <ele>27.5349</ele>
        <time>2011-01-17T20:01:58Z</time>
      </trkpt>
      <trkpt lat="59.5340023" lon="17.8701644">
        <ele>29.4575</ele>
        <time>2011-01-17T20:02:04Z</time>
      </trkpt>
      <trkpt lat="59.5338956" lon="17.8700974">
        <ele>29.4575</ele>
        <time>2011-01-17T20:02:08Z</time>
      </trkpt>
      <trkpt lat="59.5337574" lon="17.869974">
        <ele>28.9769</ele>
        <time>2011-01-17T20:02:13Z</time>
      </trkpt>
      <trkpt lat="59.5336443" lon="17.8698094">
        <ele>31.3801</ele>
        <time>2011-01-17T20:02:18Z</time>
      </trkpt>
      <trkpt lat="59.5335857" lon="17.8696591">
        <ele>32.8223</ele>
        <time>2011-01-17T20:02:22Z</time>
      </trkpt>
      <trkpt lat="59.5335351" lon="17.8695338">
        <ele>32.8223</ele>
        <time>2011-01-17T20:02:26Z</time>
      </trkpt>
      <trkpt lat="59.5334926" lon="17.8693566">
        <ele>31.3801</ele>
        <time>2011-01-17T20:02:30Z</time>
      </trkpt>
      <trkpt lat="59.5334454" lon="17.8692031">
        <ele>29.9381</ele>
        <time>2011-01-17T20:02:33Z</time>
      </trkpt>
      <trkpt lat="59.5333662" lon="17.8689588">
        <ele>30.8995</ele>
        <time>2011-01-17T20:02:38Z</time>
      </trkpt>
      <trkpt lat="59.5333008" lon="17.8687589">
        <ele>29.9381</ele>
        <time>2011-01-17T20:02:42Z</time>
      </trkpt>
      <trkpt lat="59.5332434" lon="17.8686054">
        <ele>29.9381</ele>
        <time>2011-01-17T20:02:45Z</time>
      </trkpt>
      <trkpt lat="59.5331756" lon="17.8683899">
        <ele>28.9769</ele>
        <time>2011-01-17T20:02:50Z</time>
      </trkpt>
      <trkpt lat="59.5331361" lon="17.8681932">
        <ele>28.9769</ele>
        <time>2011-01-17T20:02:54Z</time>
      </trkpt>
      <trkpt lat="59.5331202" lon="17.8681073">
        <ele>28.0155</ele>
        <time>2011-01-17T20:02:56Z</time>
      </trkpt>
      <trkpt lat="59.5330565" lon="17.8678317">
        <ele>29.4575</ele>
        <time>2011-01-17T20:03:02Z</time>
      </trkpt>
      <trkpt lat="59.5330091" lon="17.8676051">
        <ele>28.9769</ele>
        <time>2011-01-17T20:03:07Z</time>
      </trkpt>
      <trkpt lat="59.5329741" lon="17.8674167">
        <ele>26.0929</ele>
        <time>2011-01-17T20:03:11Z</time>
      </trkpt>
      <trkpt lat="59.5328901" lon="17.8671477">
        <ele>26.0929</ele>
        <time>2011-01-17T20:03:17Z</time>
      </trkpt>
      <trkpt lat="59.5328231" lon="17.8669707">
        <ele>26.5736</ele>
        <time>2011-01-17T20:03:21Z</time>
      </trkpt>
      <trkpt lat="59.5327409" lon="17.8667899">
        <ele>28.0155</ele>
        <time>2011-01-17T20:03:26Z</time>
      </trkpt>
      <trkpt lat="59.5326703" lon="17.8666396">
        <ele>29.9381</ele>
        <time>2011-01-17T20:03:30Z</time>
      </trkpt>
      <trkpt lat="59.5326508" lon="17.8665392">
        <ele>30.8995</ele>
        <time>2011-01-17T20:03:32Z</time>
      </trkpt>
      <trkpt lat="59.5325953" lon="17.8662844">
        <ele>31.8607</ele>
        <time>2011-01-17T20:03:37Z</time>
      </trkpt>
      <trkpt lat="59.5325807" lon="17.8662389">
        <ele>32.3416</ele>
        <time>2011-01-17T20:03:38Z</time>
      </trkpt>
      <trkpt lat="59.5325392" lon="17.8659968">
        <ele>32.3416</ele>
        <time>2011-01-17T20:03:43Z</time>
      </trkpt>
      <trkpt lat="59.5324848" lon="17.8657924">
        <ele>32.3416</ele>
        <time>2011-01-17T20:03:48Z</time>
      </trkpt>
      <trkpt lat="59.5324525" lon="17.8656141">
        <ele>33.3029</ele>
        <time>2011-01-17T20:03:52Z</time>
      </trkpt>
      <trkpt lat="59.5324156" lon="17.8653873">
        <ele>30.8995</ele>
        <time>2011-01-17T20:03:57Z</time>
      </trkpt>
      <trkpt lat="59.5323964" lon="17.8651224">
        <ele>30.8995</ele>
        <time>2011-01-17T20:04:01Z</time>
      </trkpt>
      <trkpt lat="59.532382" lon="17.8649121">
        <ele>29.9381</ele>
        <time>2011-01-17T20:04:05Z</time>
      </trkpt>
      <trkpt lat="59.5323536" lon="17.8647302">
        <ele>30.8995</ele>
        <time>2011-01-17T20:04:09Z</time>
      </trkpt>
      <trkpt lat="59.5323435" lon="17.8645721">
        <ele>31.3801</ele>
        <time>2011-01-17T20:04:13Z</time>
      </trkpt>
      <trkpt lat="59.5323317" lon="17.8643864">
        <ele>30.4188</ele>
        <time>2011-01-17T20:04:17Z</time>
      </trkpt>
      <trkpt lat="59.5323128" lon="17.8641559">
        <ele>29.9381</ele>
        <time>2011-01-17T20:04:21Z</time>
      </trkpt>
      <trkpt lat="59.5322903" lon="17.8639088">
        <ele>29.4575</ele>
        <time>2011-01-17T20:04:26Z</time>
      </trkpt>
      <trkpt lat="59.532284" lon="17.8636229">
        <ele>28.4962</ele>
        <time>2011-01-17T20:04:31Z</time>
      </trkpt>
      <trkpt lat="59.5322669" lon="17.8634244">
        <ele>28.4962</ele>
        <time>2011-01-17T20:04:35Z</time>
      </trkpt>
      <trkpt lat="59.5322452" lon="17.8632338">
        <ele>28.4962</ele>
        <time>2011-01-17T20:04:39Z</time>
      </trkpt>
      <trkpt lat="59.532211" lon="17.8630147">
        <ele>29.9381</ele>
        <time>2011-01-17T20:04:43Z</time>
      </trkpt>
      <trkpt lat="59.5321456" lon="17.8627762">
        <ele>35.7061</ele>
        <time>2011-01-17T20:04:48Z</time>
      </trkpt>
      <trkpt lat="59.532053" lon="17.862392">
        <ele>41.474</ele>
        <time>2011-01-17T20:04:55Z</time>
      </trkpt>
      <trkpt lat="59.531996" lon="17.8622174">
        <ele>40.0321</ele>
        <time>2011-01-17T20:05:00Z</time>
      </trkpt>
      <trkpt lat="59.5319656" lon="17.8620503">
        <ele>40.5128</ele>
        <time>2011-01-17T20:05:04Z</time>
      </trkpt>
      <trkpt lat="59.5318884" lon="17.86186">
        <ele>41.474</ele>
        <time>2011-01-17T20:05:08Z</time>
      </trkpt>
      <trkpt lat="59.531848" lon="17.8617196">
        <ele>40.9934</ele>
        <time>2011-01-17T20:05:12Z</time>
      </trkpt>
      <trkpt lat="59.5318282" lon="17.8615222">
        <ele>41.9547</ele>
        <time>2011-01-17T20:05:16Z</time>
      </trkpt>
      <trkpt lat="59.5318295" lon="17.8613016">
        <ele>41.9547</ele>
        <time>2011-01-17T20:05:20Z</time>
      </trkpt>
      <trkpt lat="59.5318245" lon="17.8610555">
        <ele>41.474</ele>
        <time>2011-01-17T20:05:25Z</time>
      </trkpt>
      <trkpt lat="59.5318013" lon="17.8608712">
        <ele>44.358</ele>
        <time>2011-01-17T20:05:29Z</time>
      </trkpt>
      <trkpt lat="59.5317767" lon="17.860691">
        <ele>44.8386</ele>
        <time>2011-01-17T20:05:33Z</time>
      </trkpt>
      <trkpt lat="59.5317442" lon="17.8606066">
        <ele>43.8773</ele>
        <time>2011-01-17T20:05:36Z</time>
      </trkpt>
      <trkpt lat="59.5317158" lon="17.860525">
        <ele>45.3192</ele>
        <time>2011-01-17T20:05:38Z</time>
      </trkpt>
      <trkpt lat="59.5316719" lon="17.8603945">
        <ele>45.7999</ele>
        <time>2011-01-17T20:05:41Z</time>
      </trkpt>
      <trkpt lat="59.5316578" lon="17.8603239">
        <ele>46.2806</ele>
        <time>2011-01-17T20:05:43Z</time>
      </trkpt>
      <trkpt lat="59.5315791" lon="17.8601447">
        <ele>46.7612</ele>
        <time>2011-01-17T20:05:48Z</time>
      </trkpt>
      <trkpt lat="59.5315032" lon="17.8599772">
        <ele>45.3192</ele>
        <time>2011-01-17T20:05:53Z</time>
      </trkpt>
      <trkpt lat="59.5314122" lon="17.8597774">
        <ele>44.8386</ele>
        <time>2011-01-17T20:05:58Z</time>
      </trkpt>
      <trkpt lat="59.5313111" lon="17.859618">
        <ele>45.3192</ele>
        <time>2011-01-17T20:06:04Z</time>
      </trkpt>
      <trkpt lat="59.5312521" lon="17.8595067">
        <ele>46.7612</ele>
        <time>2011-01-17T20:06:08Z</time>
      </trkpt>
      <trkpt lat="59.531178" lon="17.8593967">
        <ele>48.684</ele>
        <time>2011-01-17T20:06:13Z</time>
      </trkpt>
      <trkpt lat="59.5310455" lon="17.8592021">
        <ele>52.5292</ele>
        <time>2011-01-17T20:06:19Z</time>
      </trkpt>
      <trkpt lat="59.5310268" lon="17.8589782">
        <ele>48.2034</ele>
        <time>2011-01-17T20:06:23Z</time>
      </trkpt>
      <trkpt lat="59.5310128" lon="17.8587396">
        <ele>47.2418</ele>
        <time>2011-01-17T20:06:28Z</time>
      </trkpt>
      <trkpt lat="59.5310122" lon="17.8585706">
        <ele>45.3192</ele>
        <time>2011-01-17T20:06:31Z</time>
      </trkpt>
      <trkpt lat="59.5310393" lon="17.8583562">
        <ele>41.9547</ele>
        <time>2011-01-17T20:06:36Z</time>
      </trkpt>
      <trkpt lat="59.5310361" lon="17.8581931">
        <ele>39.5513</ele>
        <time>2011-01-17T20:06:39Z</time>
      </trkpt>
      <trkpt lat="59.5310116" lon="17.8579123">
        <ele>40.9934</ele>
        <time>2011-01-17T20:06:45Z</time>
      </trkpt>
      <trkpt lat="59.5309663" lon="17.8576652">
        <ele>40.9934</ele>
        <time>2011-01-17T20:06:50Z</time>
      </trkpt>
      <trkpt lat="59.5309749" lon="17.8574351">
        <ele>37.6287</ele>
        <time>2011-01-17T20:06:54Z</time>
      </trkpt>
      <trkpt lat="59.5309437" lon="17.857217">
        <ele>37.6287</ele>
        <time>2011-01-17T20:06:59Z</time>
      </trkpt>
      <trkpt lat="59.5308916" lon="17.8569685">
        <ele>39.5513</ele>
        <time>2011-01-17T20:07:04Z</time>
      </trkpt>
      <trkpt lat="59.5308375" lon="17.8566933">
        <ele>39.0707</ele>
        <time>2011-01-17T20:07:09Z</time>
      </trkpt>
      <trkpt lat="59.5307878" lon="17.8564784">
        <ele>35.2255</ele>
        <time>2011-01-17T20:07:14Z</time>
      </trkpt>
      <trkpt lat="59.5307641" lon="17.8562638">
        <ele>30.4188</ele>
        <time>2011-01-17T20:07:18Z</time>
      </trkpt>
      <trkpt lat="59.5307394" lon="17.856092">
        <ele>30.4188</ele>
        <time>2011-01-17T20:07:21Z</time>
      </trkpt>
      <trkpt lat="59.5306825" lon="17.8558672">
        <ele>33.7834</ele>
        <time>2011-01-17T20:07:26Z</time>
      </trkpt>
      <trkpt lat="59.5305513" lon="17.8556947">
        <ele>38.5901</ele>
        <time>2011-01-17T20:07:32Z</time>
      </trkpt>
      <trkpt lat="59.5304437" lon="17.8556691">
        <ele>40.9934</ele>
        <time>2011-01-17T20:07:36Z</time>
      </trkpt>
      <trkpt lat="59.530284" lon="17.8555973">
        <ele>40.0321</ele>
        <time>2011-01-17T20:07:41Z</time>
      </trkpt>
      <trkpt lat="59.5301684" lon="17.8553746">
        <ele>38.1094</ele>
        <time>2011-01-17T20:07:45Z</time>
      </trkpt>
      <trkpt lat="59.5300384" lon="17.855124">
        <ele>34.7449</ele>
        <time>2011-01-17T20:07:50Z</time>
      </trkpt>
      <trkpt lat="59.5299637" lon="17.8549274">
        <ele>33.7834</ele>
        <time>2011-01-17T20:07:54Z</time>
      </trkpt>
      <trkpt lat="59.5298468" lon="17.85458">
        <ele>35.7061</ele>
        <time>2011-01-17T20:07:58Z</time>
      </trkpt>
      <trkpt lat="59.5297029" lon="17.8541246">
        <ele>37.1481</ele>
        <time>2011-01-17T20:08:03Z</time>
      </trkpt>
      <trkpt lat="59.5295711" lon="17.8538177">
        <ele>39.0707</ele>
        <time>2011-01-17T20:08:08Z</time>
      </trkpt>
      <trkpt lat="59.5294781" lon="17.8536906">
        <ele>40.9934</ele>
        <time>2011-01-17T20:08:12Z</time>
      </trkpt>
      <trkpt lat="59.5293717" lon="17.8533486">
        <ele>39.0707</ele>
        <time>2011-01-17T20:08:18Z</time>
      </trkpt>
      <trkpt lat="59.5292538" lon="17.8530496">
        <ele>35.7061</ele>
        <time>2011-01-17T20:08:23Z</time>
      </trkpt>
      <trkpt lat="59.5291511" lon="17.852784">
        <ele>35.2255</ele>
        <time>2011-01-17T20:08:28Z</time>
      </trkpt>
      <trkpt lat="59.5290599" lon="17.8526301">
        <ele>33.7834</ele>
        <time>2011-01-17T20:08:32Z</time>
      </trkpt>
      <trkpt lat="59.5289492" lon="17.8525357">
        <ele>34.2642</ele>
        <time>2011-01-17T20:08:36Z</time>
      </trkpt>
      <trkpt lat="59.5287852" lon="17.8525509">
        <ele>38.5901</ele>
        <time>2011-01-17T20:08:42Z</time>
      </trkpt>
      <trkpt lat="59.5286945" lon="17.8525391">
        <ele>43.3966</ele>
        <time>2011-01-17T20:08:46Z</time>
      </trkpt>
      <trkpt lat="59.5285804" lon="17.8525255">
        <ele>43.3966</ele>
        <time>2011-01-17T20:08:52Z</time>
      </trkpt>
      <trkpt lat="59.5284558" lon="17.8524467">
        <ele>43.3966</ele>
        <time>2011-01-17T20:08:57Z</time>
      </trkpt>
      <trkpt lat="59.5283616" lon="17.8523189">
        <ele>42.916</ele>
        <time>2011-01-17T20:09:02Z</time>
      </trkpt>
      <trkpt lat="59.5283188" lon="17.8522718">
        <ele>42.4354</ele>
        <time>2011-01-17T20:09:04Z</time>
      </trkpt>
      <trkpt lat="59.5282051" lon="17.8522111">
        <ele>46.2806</ele>
        <time>2011-01-17T20:09:09Z</time>
      </trkpt>
      <trkpt lat="59.5281207" lon="17.8520645">
        <ele>49.6453</ele>
        <time>2011-01-17T20:09:14Z</time>
      </trkpt>
      <trkpt lat="59.52807" lon="17.8519691">
        <ele>49.1646</ele>
        <time>2011-01-17T20:09:18Z</time>
      </trkpt>
      <trkpt lat="59.5280113" lon="17.8517972">
        <ele>49.1646</ele>
        <time>2011-01-17T20:09:23Z</time>
      </trkpt>
      <trkpt lat="59.5279296" lon="17.8516075">
        <ele>50.6066</ele>
        <time>2011-01-17T20:09:28Z</time>
      </trkpt>
      <trkpt lat="59.5278385" lon="17.8514354">
        <ele>47.7225</ele>
        <time>2011-01-17T20:09:33Z</time>
      </trkpt>
      <trkpt lat="59.5278193" lon="17.8513971">
        <ele>48.684</ele>
        <time>2011-01-17T20:09:34Z</time>
      </trkpt>
      <trkpt lat="59.5277245" lon="17.8512713">
        <ele>47.7225</ele>
        <time>2011-01-17T20:09:39Z</time>
      </trkpt>
      <trkpt lat="59.5276648" lon="17.8512231">
        <ele>46.2806</ele>
        <time>2011-01-17T20:09:41Z</time>
      </trkpt>
      <trkpt lat="59.5275886" lon="17.851063">
        <ele>48.2034</ele>
        <time>2011-01-17T20:09:45Z</time>
      </trkpt>
      <trkpt lat="59.5274971" lon="17.8508905">
        <ele>49.1646</ele>
        <time>2011-01-17T20:09:51Z</time>
      </trkpt>
      <trkpt lat="59.5274734" lon="17.8507212">
        <ele>53.4905</ele>
        <time>2011-01-17T20:09:56Z</time>
      </trkpt>
      <trkpt lat="59.5274794" lon="17.8505311">
        <ele>50.6066</ele>
        <time>2011-01-17T20:10:01Z</time>
      </trkpt>
      <trkpt lat="59.52754" lon="17.8503126">
        <ele>48.2034</ele>
        <time>2011-01-17T20:10:06Z</time>
      </trkpt>
      <trkpt lat="59.527551" lon="17.8500821">
        <ele>46.2806</ele>
        <time>2011-01-17T20:10:12Z</time>
      </trkpt>
      <trkpt lat="59.5275002" lon="17.8498297">
        <ele>49.6453</ele>
        <time>2011-01-17T20:10:16Z</time>
      </trkpt>
      <trkpt lat="59.5273985" lon="17.8495079">
        <ele>49.6453</ele>
        <time>2011-01-17T20:10:21Z</time>
      </trkpt>
      <trkpt lat="59.5273583" lon="17.8492632">
        <ele>46.7612</ele>
        <time>2011-01-17T20:10:25Z</time>
      </trkpt>
      <trkpt lat="59.5272951" lon="17.8489999">
        <ele>45.3192</ele>
        <time>2011-01-17T20:10:28Z</time>
      </trkpt>
      <trkpt lat="59.5272196" lon="17.8482114">
        <ele>39.5513</ele>
        <time>2011-01-17T20:10:34Z</time>
      </trkpt>
      <trkpt lat="59.5271712" lon="17.8477298">
        <ele>38.5901</ele>
        <time>2011-01-17T20:10:37Z</time>
      </trkpt>
      <trkpt lat="59.5270485" lon="17.8471849">
        <ele>36.6675</ele>
        <time>2011-01-17T20:10:41Z</time>
      </trkpt>
      <trkpt lat="59.5268323" lon="17.8465711">
        <ele>35.2255</ele>
        <time>2011-01-17T20:10:47Z</time>
      </trkpt>
      <trkpt lat="59.5266999" lon="17.8463368">
        <ele>33.3029</ele>
        <time>2011-01-17T20:10:50Z</time>
      </trkpt>
      <trkpt lat="59.5265837" lon="17.8462227">
        <ele>32.8223</ele>
        <time>2011-01-17T20:10:52Z</time>
      </trkpt>
      <trkpt lat="59.5263449" lon="17.8461265">
        <ele>31.8607</ele>
        <time>2011-01-17T20:10:56Z</time>
      </trkpt>
      <trkpt lat="59.5262473" lon="17.8461188">
        <ele>32.8223</ele>
        <time>2011-01-17T20:10:58Z</time>
      </trkpt>
      <trkpt lat="59.5261335" lon="17.8462021">
        <ele>31.8607</ele>
        <time>2011-01-17T20:11:02Z</time>
      </trkpt>
      <trkpt lat="59.526089" lon="17.8462411">
        <ele>31.8607</ele>
        <time>2011-01-17T20:11:04Z</time>
      </trkpt>
      <trkpt lat="59.5259756" lon="17.8463659">
        <ele>41.9547</ele>
        <time>2011-01-17T20:11:09Z</time>
      </trkpt>
      <trkpt lat="59.5259507" lon="17.846417">
        <ele>44.8386</ele>
        <time>2011-01-17T20:11:12Z</time>
      </trkpt>
      <trkpt lat="59.5258788" lon="17.8466078">
        <ele>46.2806</ele>
        <time>2011-01-17T20:11:19Z</time>
      </trkpt>
      <trkpt lat="59.5258581" lon="17.8466373">
        <ele>46.7612</ele>
        <time>2011-01-17T20:11:20Z</time>
      </trkpt>
      <trkpt lat="59.5257999" lon="17.8467083">
        <ele>41.474</ele>
        <time>2011-01-17T20:11:25Z</time>
      </trkpt>
      <trkpt lat="59.5256451" lon="17.8467615">
        <ele>40.9934</ele>
        <time>2011-01-17T20:11:31Z</time>
      </trkpt>
      <trkpt lat="59.5255435" lon="17.8468321">
        <ele>44.8386</ele>
        <time>2011-01-17T20:11:35Z</time>
      </trkpt>
      <trkpt lat="59.5254508" lon="17.8468357">
        <ele>44.358</ele>
        <time>2011-01-17T20:11:39Z</time>
      </trkpt>
      <trkpt lat="59.525354" lon="17.8468123">
        <ele>43.8773</ele>
        <time>2011-01-17T20:11:45Z</time>
      </trkpt>
      <trkpt lat="59.5253361" lon="17.8468049">
        <ele>43.8773</ele>
        <time>2011-01-17T20:11:46Z</time>
      </trkpt>
      <trkpt lat="59.5252334" lon="17.8467667">
        <ele>42.916</ele>
        <time>2011-01-17T20:11:51Z</time>
      </trkpt>
      <trkpt lat="59.5251215" lon="17.846832">
        <ele>42.4354</ele>
        <time>2011-01-17T20:11:55Z</time>
      </trkpt>
      <trkpt lat="59.5249961" lon="17.8469154">
        <ele>40.9934</ele>
        <time>2011-01-17T20:12:00Z</time>
      </trkpt>
      <trkpt lat="59.524849" lon="17.8470139">
        <ele>40.9934</ele>
        <time>2011-01-17T20:12:04Z</time>
      </trkpt>
      <trkpt lat="59.5246879" lon="17.8470575">
        <ele>39.5513</ele>
        <time>2011-01-17T20:12:08Z</time>
      </trkpt>
      <trkpt lat="59.5245989" lon="17.8471074">
        <ele>38.5901</ele>
        <time>2011-01-17T20:12:10Z</time>
      </trkpt>
      <trkpt lat="59.5244019" lon="17.847349">
        <ele>39.5513</ele>
        <time>2011-01-17T20:12:15Z</time>
      </trkpt>
      <trkpt lat="59.5242765" lon="17.8475812">
        <ele>37.1481</ele>
        <time>2011-01-17T20:12:19Z</time>
      </trkpt>
      <trkpt lat="59.5242396" lon="17.8477174">
        <ele>35.2255</ele>
        <time>2011-01-17T20:12:21Z</time>
      </trkpt>
      <trkpt lat="59.5241466" lon="17.8479701">
        <ele>33.7834</ele>
        <time>2011-01-17T20:12:25Z</time>
      </trkpt>
      <trkpt lat="59.524027" lon="17.8482545">
        <ele>34.2642</ele>
        <time>2011-01-17T20:12:29Z</time>
      </trkpt>
      <trkpt lat="59.5237818" lon="17.8484608">
        <ele>36.1868</ele>
        <time>2011-01-17T20:12:34Z</time>
      </trkpt>
      <trkpt lat="59.5236954" lon="17.848472">
        <ele>37.1481</ele>
        <time>2011-01-17T20:12:36Z</time>
      </trkpt>
      <trkpt lat="59.5233607" lon="17.8484731">
        <ele>37.6287</ele>
        <time>2011-01-17T20:12:42Z</time>
      </trkpt>
      <trkpt lat="59.523112" lon="17.8484864">
        <ele>36.1868</ele>
        <time>2011-01-17T20:12:47Z</time>
      </trkpt>
      <trkpt lat="59.5229798" lon="17.8486482">
        <ele>34.7449</ele>
        <time>2011-01-17T20:12:51Z</time>
      </trkpt>
      <trkpt lat="59.5228712" lon="17.8487557">
        <ele>33.3029</ele>
        <time>2011-01-17T20:12:54Z</time>
      </trkpt>
      <trkpt lat="59.5227331" lon="17.8489453">
        <ele>31.3801</ele>
        <time>2011-01-17T20:12:59Z</time>
      </trkpt>
      <trkpt lat="59.522668" lon="17.8490775">
        <ele>31.8607</ele>
        <time>2011-01-17T20:13:02Z</time>
      </trkpt>
      <trkpt lat="59.5225438" lon="17.8492626">
        <ele>29.9381</ele>
        <time>2011-01-17T20:13:07Z</time>
      </trkpt>
      <trkpt lat="59.5224359" lon="17.8494613">
        <ele>28.4962</ele>
        <time>2011-01-17T20:13:11Z</time>
      </trkpt>
      <trkpt lat="59.5223714" lon="17.8496511">
        <ele>27.0543</ele>
        <time>2011-01-17T20:13:15Z</time>
      </trkpt>
      <trkpt lat="59.5223191" lon="17.8498313">
        <ele>25.1317</ele>
        <time>2011-01-17T20:13:19Z</time>
      </trkpt>
      <trkpt lat="59.5222606" lon="17.8500158">
        <ele>30.8995</ele>
        <time>2011-01-17T20:14:12Z</time>
      </trkpt>
      <trkpt lat="59.5222932" lon="17.8499193">
        <ele>28.9769</ele>
        <time>2011-01-17T20:14:15Z</time>
      </trkpt>
      <trkpt lat="59.5223329" lon="17.8496956">
        <ele>25.6123</ele>
        <time>2011-01-17T20:14:20Z</time>
      </trkpt>
      <trkpt lat="59.5223952" lon="17.849605">
        <ele>23.6896</ele>
        <time>2011-01-17T20:14:23Z</time>
      </trkpt>
      <trkpt lat="59.5225263" lon="17.8494325">
        <ele>22.2476</ele>
        <time>2011-01-17T20:14:29Z</time>
      </trkpt>
      <trkpt lat="59.5226393" lon="17.8492593">
        <ele>19.8444</ele>
        <time>2011-01-17T20:14:35Z</time>
      </trkpt>
      <trkpt lat="59.5227209" lon="17.8491579">
        <ele>15.999</ele>
        <time>2011-01-17T20:14:39Z</time>
      </trkpt>
      <trkpt lat="59.5227962" lon="17.8489988">
        <ele>15.0377</ele>
        <time>2011-01-17T20:14:44Z</time>
      </trkpt>
      <trkpt lat="59.5228417" lon="17.8488923">
        <ele>14.557</ele>
        <time>2011-01-17T20:14:47Z</time>
      </trkpt>
      <trkpt lat="59.522962" lon="17.8487275">
        <ele>13.5958</ele>
        <time>2011-01-17T20:14:53Z</time>
      </trkpt>
      <trkpt lat="59.5229847" lon="17.8486905">
        <ele>13.1151</ele>
        <time>2011-01-17T20:14:54Z</time>
      </trkpt>
      <trkpt lat="59.5230931" lon="17.8485727">
        <ele>16.9604</ele>
        <time>2011-01-17T20:14:59Z</time>
      </trkpt>
      <trkpt lat="59.5232043" lon="17.8484828">
        <ele>18.4023</ele>
        <time>2011-01-17T20:15:04Z</time>
      </trkpt>
      <trkpt lat="59.5232178" lon="17.8484802">
        <ele>19.3638</ele>
        <time>2011-01-17T20:15:05Z</time>
      </trkpt>
      <trkpt lat="59.5233509" lon="17.8484944">
        <ele>23.6896</ele>
        <time>2011-01-17T20:15:10Z</time>
      </trkpt>
      <trkpt lat="59.5234749" lon="17.8484814">
        <ele>28.4962</ele>
        <time>2011-01-17T20:15:15Z</time>
      </trkpt>
      <trkpt lat="59.5235881" lon="17.8484348">
        <ele>33.7834</ele>
        <time>2011-01-17T20:15:20Z</time>
      </trkpt>
      <trkpt lat="59.5236106" lon="17.8484285">
        <ele>36.1868</ele>
        <time>2011-01-17T20:15:22Z</time>
      </trkpt>
      <trkpt lat="59.5237369" lon="17.8484076">
        <ele>34.7449</ele>
        <time>2011-01-17T20:15:29Z</time>
      </trkpt>
      <trkpt lat="59.5238235" lon="17.848365">
        <ele>33.3029</ele>
        <time>2011-01-17T20:15:33Z</time>
      </trkpt>
      <trkpt lat="59.5238546" lon="17.8483239">
        <ele>33.3029</ele>
        <time>2011-01-17T20:15:35Z</time>
      </trkpt>
      <trkpt lat="59.5239176" lon="17.8481835">
        <ele>31.8607</ele>
        <time>2011-01-17T20:15:39Z</time>
      </trkpt>
      <trkpt lat="59.5240016" lon="17.8480985">
        <ele>28.9769</ele>
        <time>2011-01-17T20:15:44Z</time>
      </trkpt>
      <trkpt lat="59.5241077" lon="17.847908">
        <ele>22.7283</ele>
        <time>2011-01-17T20:15:50Z</time>
      </trkpt>
      <trkpt lat="59.5241792" lon="17.8476944">
        <ele>29.9381</ele>
        <time>2011-01-17T20:15:55Z</time>
      </trkpt>
      <trkpt lat="59.5242617" lon="17.8475159">
        <ele>28.4962</ele>
        <time>2011-01-17T20:16:00Z</time>
      </trkpt>
      <trkpt lat="59.5243383" lon="17.8473792">
        <ele>29.4575</ele>
        <time>2011-01-17T20:16:04Z</time>
      </trkpt>
      <trkpt lat="59.5243977" lon="17.8473262">
        <ele>30.4188</ele>
        <time>2011-01-17T20:16:07Z</time>
      </trkpt>
      <trkpt lat="59.524518" lon="17.8471847">
        <ele>29.4575</ele>
        <time>2011-01-17T20:16:13Z</time>
      </trkpt>
      <trkpt lat="59.524604" lon="17.8470961">
        <ele>28.4962</ele>
        <time>2011-01-17T20:16:19Z</time>
      </trkpt>
      <trkpt lat="59.5247484" lon="17.8470233">
        <ele>34.2642</ele>
        <time>2011-01-17T20:16:27Z</time>
      </trkpt>
      <trkpt lat="59.5248343" lon="17.8469876">
        <ele>34.2642</ele>
        <time>2011-01-17T20:16:31Z</time>
      </trkpt>
      <trkpt lat="59.524955" lon="17.8469145">
        <ele>35.7061</ele>
        <time>2011-01-17T20:16:36Z</time>
      </trkpt>
      <trkpt lat="59.524973" lon="17.8468976">
        <ele>35.7061</ele>
        <time>2011-01-17T20:16:37Z</time>
      </trkpt>
      <trkpt lat="59.5251037" lon="17.8468071">
        <ele>35.7061</ele>
        <time>2011-01-17T20:16:43Z</time>
      </trkpt>
      <trkpt lat="59.5251733" lon="17.8467733">
        <ele>34.7449</ele>
        <time>2011-01-17T20:16:46Z</time>
      </trkpt>
      <trkpt lat="59.5252985" lon="17.8468153">
        <ele>36.1868</ele>
        <time>2011-01-17T20:16:51Z</time>
      </trkpt>
      <trkpt lat="59.5254153" lon="17.8468159">
        <ele>37.6287</ele>
        <time>2011-01-17T20:16:54Z</time>
      </trkpt>
      <trkpt lat="59.5257018" lon="17.8467019">
        <ele>38.1094</ele>
        <time>2011-01-17T20:17:00Z</time>
      </trkpt>
      <trkpt lat="59.5258243" lon="17.8466298">
        <ele>37.1481</ele>
        <time>2011-01-17T20:17:02Z</time>
      </trkpt>
      <trkpt lat="59.5261095" lon="17.846313">
        <ele>33.3029</ele>
        <time>2011-01-17T20:17:07Z</time>
      </trkpt>
      <trkpt lat="59.5264061" lon="17.8461794">
        <ele>34.2642</ele>
        <time>2011-01-17T20:17:11Z</time>
      </trkpt>
      <trkpt lat="59.5264854" lon="17.8461965">
        <ele>34.2642</ele>
        <time>2011-01-17T20:17:12Z</time>
      </trkpt>
      <trkpt lat="59.5267243" lon="17.8463111">
        <ele>36.6675</ele>
        <time>2011-01-17T20:17:18Z</time>
      </trkpt>
      <trkpt lat="59.5268299" lon="17.8464114">
        <ele>38.1094</ele>
        <time>2011-01-17T20:17:22Z</time>
      </trkpt>
      <trkpt lat="59.5268644" lon="17.8464739">
        <ele>40.9934</ele>
        <time>2011-01-17T20:17:24Z</time>
      </trkpt>
      <trkpt lat="59.526919" lon="17.8466699">
        <ele>46.2806</ele>
        <time>2011-01-17T20:17:31Z</time>
      </trkpt>
      <trkpt lat="59.5269599" lon="17.8467873">
        <ele>45.7999</ele>
        <time>2011-01-17T20:17:36Z</time>
      </trkpt>
      <trkpt lat="59.5270191" lon="17.8470043">
        <ele>44.358</ele>
        <time>2011-01-17T20:17:44Z</time>
      </trkpt>
      <trkpt lat="59.5270547" lon="17.8471238">
        <ele>44.358</ele>
        <time>2011-01-17T20:17:47Z</time>
      </trkpt>
      <trkpt lat="59.5271086" lon="17.847289">
        <ele>44.8386</ele>
        <time>2011-01-17T20:17:52Z</time>
      </trkpt>
      <trkpt lat="59.5271833" lon="17.8474547">
        <ele>43.8773</ele>
        <time>2011-01-17T20:17:57Z</time>
      </trkpt>
      <trkpt lat="59.5271956" lon="17.8476268">
        <ele>42.916</ele>
        <time>2011-01-17T20:18:02Z</time>
      </trkpt>
      <trkpt lat="59.5272491" lon="17.8478567">
        <ele>45.3192</ele>
        <time>2011-01-17T20:18:07Z</time>
      </trkpt>
      <trkpt lat="59.5272646" lon="17.8480834">
        <ele>46.2806</ele>
        <time>2011-01-17T20:18:13Z</time>
      </trkpt>
      <trkpt lat="59.5273018" lon="17.8482486">
        <ele>47.2418</ele>
        <time>2011-01-17T20:18:18Z</time>
      </trkpt>
      <trkpt lat="59.5273161" lon="17.8484731">
        <ele>50.6066</ele>
        <time>2011-01-17T20:18:24Z</time>
      </trkpt>
      <trkpt lat="59.5273288" lon="17.8486547">
        <ele>49.6453</ele>
        <time>2011-01-17T20:18:28Z</time>
      </trkpt>
      <trkpt lat="59.5273406" lon="17.848901">
        <ele>51.0872</ele>
        <time>2011-01-17T20:18:33Z</time>
      </trkpt>
      <trkpt lat="59.5273868" lon="17.849073">
        <ele>48.684</ele>
        <time>2011-01-17T20:18:37Z</time>
      </trkpt>
      <trkpt lat="59.527406" lon="17.8491657">
        <ele>48.2034</ele>
        <time>2011-01-17T20:18:39Z</time>
      </trkpt>
      <trkpt lat="59.5274074" lon="17.8492288">
        <ele>48.684</ele>
        <time>2011-01-17T20:18:41Z</time>
      </trkpt>
      <trkpt lat="59.5274215" lon="17.849365">
        <ele>48.684</ele>
        <time>2011-01-17T20:18:45Z</time>
      </trkpt>
      <trkpt lat="59.5274277" lon="17.8495645">
        <ele>49.6453</ele>
        <time>2011-01-17T20:18:50Z</time>
      </trkpt>
      <trkpt lat="59.5275164" lon="17.8497852">
        <ele>49.1646</ele>
        <time>2011-01-17T20:18:55Z</time>
      </trkpt>
      <trkpt lat="59.5275684" lon="17.8499339">
        <ele>49.6453</ele>
        <time>2011-01-17T20:18:59Z</time>
      </trkpt>
      <trkpt lat="59.5275809" lon="17.8499748">
        <ele>48.684</ele>
        <time>2011-01-17T20:19:00Z</time>
      </trkpt>
      <trkpt lat="59.527566" lon="17.8503544">
        <ele>46.7612</ele>
        <time>2011-01-17T20:19:06Z</time>
      </trkpt>
      <trkpt lat="59.5276043" lon="17.8508165">
        <ele>43.3966</ele>
        <time>2011-01-17T20:19:11Z</time>
      </trkpt>
      <trkpt lat="59.5277819" lon="17.8513522">
        <ele>40.0321</ele>
        <time>2011-01-17T20:19:16Z</time>
      </trkpt>
      <trkpt lat="59.5279607" lon="17.8516553">
        <ele>39.5513</ele>
        <time>2011-01-17T20:19:19Z</time>
      </trkpt>
      <trkpt lat="59.5281539" lon="17.8519924">
        <ele>41.474</ele>
        <time>2011-01-17T20:19:23Z</time>
      </trkpt>
      <trkpt lat="59.5283461" lon="17.852209">
        <ele>41.474</ele>
        <time>2011-01-17T20:19:27Z</time>
      </trkpt>
      <trkpt lat="59.5286552" lon="17.8524732">
        <ele>43.3966</ele>
        <time>2011-01-17T20:19:33Z</time>
      </trkpt>
      <trkpt lat="59.5287704" lon="17.8525035">
        <ele>41.474</ele>
        <time>2011-01-17T20:19:36Z</time>
      </trkpt>
      <trkpt lat="59.5289945" lon="17.852473">
        <ele>37.6287</ele>
        <time>2011-01-17T20:19:41Z</time>
      </trkpt>
      <trkpt lat="59.529165" lon="17.8525872">
        <ele>37.1481</ele>
        <time>2011-01-17T20:19:45Z</time>
      </trkpt>
      <trkpt lat="59.5292335" lon="17.8527206">
        <ele>38.5901</ele>
        <time>2011-01-17T20:19:47Z</time>
      </trkpt>
      <trkpt lat="59.5292859" lon="17.8528969">
        <ele>38.1094</ele>
        <time>2011-01-17T20:19:49Z</time>
      </trkpt>
      <trkpt lat="59.5293666" lon="17.8531165">
        <ele>37.1481</ele>
        <time>2011-01-17T20:19:54Z</time>
      </trkpt>
      <trkpt lat="59.5294541" lon="17.853309">
        <ele>37.1481</ele>
        <time>2011-01-17T20:19:59Z</time>
      </trkpt>
      <trkpt lat="59.5295184" lon="17.8534845">
        <ele>43.8773</ele>
        <time>2011-01-17T20:20:04Z</time>
      </trkpt>
      <trkpt lat="59.529535" lon="17.8535226">
        <ele>43.3966</ele>
        <time>2011-01-17T20:20:05Z</time>
      </trkpt>
      <trkpt lat="59.5296246" lon="17.8537362">
        <ele>37.6287</ele>
        <time>2011-01-17T20:20:10Z</time>
      </trkpt>
      <trkpt lat="59.5297011" lon="17.8538756">
        <ele>38.1094</ele>
        <time>2011-01-17T20:20:13Z</time>
      </trkpt>
      <trkpt lat="59.529742" lon="17.854035">
        <ele>41.474</ele>
        <time>2011-01-17T20:20:16Z</time>
      </trkpt>
      <trkpt lat="59.5298314" lon="17.8543195">
        <ele>46.7612</ele>
        <time>2011-01-17T20:20:22Z</time>
      </trkpt>
      <trkpt lat="59.5299203" lon="17.854498">
        <ele>48.684</ele>
        <time>2011-01-17T20:20:27Z</time>
      </trkpt>
      <trkpt lat="59.5299939" lon="17.8546804">
        <ele>51.5679</ele>
        <time>2011-01-17T20:20:32Z</time>
      </trkpt>
      <trkpt lat="59.5300721" lon="17.8548896">
        <ele>54.9324</ele>
        <time>2011-01-17T20:20:37Z</time>
      </trkpt>
      <trkpt lat="59.5301098" lon="17.8551004">
        <ele>53.9712</ele>
        <time>2011-01-17T20:20:41Z</time>
      </trkpt>
      <trkpt lat="59.5301674" lon="17.8552941">
        <ele>55.4131</ele>
        <time>2011-01-17T20:20:46Z</time>
      </trkpt>
      <trkpt lat="59.5302431" lon="17.8554065">
        <ele>54.4518</ele>
        <time>2011-01-17T20:20:50Z</time>
      </trkpt>
      <trkpt lat="59.5302923" lon="17.8555034">
        <ele>53.0098</ele>
        <time>2011-01-17T20:20:53Z</time>
      </trkpt>
      <trkpt lat="59.5304141" lon="17.8555399">
        <ele>48.684</ele>
        <time>2011-01-17T20:20:57Z</time>
      </trkpt>
      <trkpt lat="59.5305477" lon="17.8555669">
        <ele>43.8773</ele>
        <time>2011-01-17T20:21:02Z</time>
      </trkpt>
      <trkpt lat="59.5306317" lon="17.8557191">
        <ele>44.8386</ele>
        <time>2011-01-17T20:21:06Z</time>
      </trkpt>
      <trkpt lat="59.5306865" lon="17.8559837">
        <ele>48.2034</ele>
        <time>2011-01-17T20:21:11Z</time>
      </trkpt>
      <trkpt lat="59.5307415" lon="17.8563174">
        <ele>49.1646</ele>
        <time>2011-01-17T20:21:16Z</time>
      </trkpt>
      <trkpt lat="59.530802" lon="17.8565194">
        <ele>47.2418</ele>
        <time>2011-01-17T20:21:20Z</time>
      </trkpt>
      <trkpt lat="59.5308166" lon="17.8566168">
        <ele>49.6453</ele>
        <time>2011-01-17T20:21:22Z</time>
      </trkpt>
      <trkpt lat="59.5308275" lon="17.8567709">
        <ele>50.126</ele>
        <time>2011-01-17T20:21:25Z</time>
      </trkpt>
      <trkpt lat="59.5308596" lon="17.8569524">
        <ele>50.6066</ele>
        <time>2011-01-17T20:21:29Z</time>
      </trkpt>
      <trkpt lat="59.5308935" lon="17.8571502">
        <ele>49.1646</ele>
        <time>2011-01-17T20:21:33Z</time>
      </trkpt>
      <trkpt lat="59.5308961" lon="17.8571969">
        <ele>49.6453</ele>
        <time>2011-01-17T20:21:34Z</time>
      </trkpt>
      <trkpt lat="59.5309909" lon="17.8574912">
        <ele>46.2806</ele>
        <time>2011-01-17T20:21:39Z</time>
      </trkpt>
      <trkpt lat="59.5310122" lon="17.8577124">
        <ele>45.7999</ele>
        <time>2011-01-17T20:21:43Z</time>
      </trkpt>
      <trkpt lat="59.5310469" lon="17.8581238">
        <ele>47.2418</ele>
        <time>2011-01-17T20:21:49Z</time>
      </trkpt>
      <trkpt lat="59.5310589" lon="17.8584679">
        <ele>44.8386</ele>
        <time>2011-01-17T20:21:53Z</time>
      </trkpt>
      <trkpt lat="59.5310513" lon="17.8587712">
        <ele>47.2418</ele>
        <time>2011-01-17T20:21:57Z</time>
      </trkpt>
      <trkpt lat="59.5310588" lon="17.859041">
        <ele>46.7612</ele>
        <time>2011-01-17T20:22:01Z</time>
      </trkpt>
      <trkpt lat="59.5311232" lon="17.85928">
        <ele>50.126</ele>
        <time>2011-01-17T20:22:05Z</time>
      </trkpt>
      <trkpt lat="59.5312703" lon="17.8594879">
        <ele>48.2034</ele>
        <time>2011-01-17T20:22:09Z</time>
      </trkpt>
      <trkpt lat="59.5313144" lon="17.8595343">
        <ele>47.2418</ele>
        <time>2011-01-17T20:22:10Z</time>
      </trkpt>
      <trkpt lat="59.5315237" lon="17.8599444">
        <ele>45.3192</ele>
        <time>2011-01-17T20:22:15Z</time>
      </trkpt>
      <trkpt lat="59.5315683" lon="17.8600368">
        <ele>45.3192</ele>
        <time>2011-01-17T20:22:16Z</time>
      </trkpt>
      <trkpt lat="59.531724" lon="17.8603195">
        <ele>42.916</ele>
        <time>2011-01-17T20:22:19Z</time>
      </trkpt>
      <trkpt lat="59.5318251" lon="17.8606127">
        <ele>42.4354</ele>
        <time>2011-01-17T20:22:22Z</time>
      </trkpt>
      <trkpt lat="59.531872" lon="17.8608194">
        <ele>42.916</ele>
        <time>2011-01-17T20:22:24Z</time>
      </trkpt>
      <trkpt lat="59.5318944" lon="17.8611265">
        <ele>41.474</ele>
        <time>2011-01-17T20:22:27Z</time>
      </trkpt>
      <trkpt lat="59.531893" lon="17.8613295">
        <ele>41.474</ele>
        <time>2011-01-17T20:22:29Z</time>
      </trkpt>
      <trkpt lat="59.5319119" lon="17.8616099">
        <ele>40.5128</ele>
        <time>2011-01-17T20:22:32Z</time>
      </trkpt>
      <trkpt lat="59.5319644" lon="17.8620577">
        <ele>39.5513</ele>
        <time>2011-01-17T20:22:37Z</time>
      </trkpt>
      <trkpt lat="59.5320116" lon="17.8623201">
        <ele>37.6287</ele>
        <time>2011-01-17T20:22:40Z</time>
      </trkpt>
      <trkpt lat="59.532121" lon="17.8628617">
        <ele>35.2255</ele>
        <time>2011-01-17T20:22:45Z</time>
      </trkpt>
      <trkpt lat="59.5321457" lon="17.8629592">
        <ele>34.7449</ele>
        <time>2011-01-17T20:22:46Z</time>
      </trkpt>
      <trkpt lat="59.532254" lon="17.8633676">
        <ele>28.4962</ele>
        <time>2011-01-17T20:22:51Z</time>
      </trkpt>
      <trkpt lat="59.5321883" lon="17.863485">
        <ele>25.6123</ele>
        <time>2011-01-17T20:22:54Z</time>
      </trkpt>
      <trkpt lat="59.5320156" lon="17.8634787">
        <ele>23.6896</ele>
        <time>2011-01-17T20:23:00Z</time>
      </trkpt>
      <trkpt lat="59.5319131" lon="17.8635229">
        <ele>21.2864</ele>
        <time>2011-01-17T20:23:04Z</time>
      </trkpt>
      <trkpt lat="59.5318047" lon="17.8636068">
        <ele>20.8057</ele>
        <time>2011-01-17T20:23:08Z</time>
      </trkpt>
      <trkpt lat="59.5316841" lon="17.8637602">
        <ele>20.325</ele>
        <time>2011-01-17T20:23:13Z</time>
      </trkpt>
      <trkpt lat="59.5315788" lon="17.8639195">
        <ele>24.651</ele>
        <time>2011-01-17T20:23:17Z</time>
      </trkpt>
      <trkpt lat="59.5314651" lon="17.8641175">
        <ele>28.9769</ele>
        <time>2011-01-17T20:23:21Z</time>
      </trkpt>
      <trkpt lat="59.5313709" lon="17.8643202">
        <ele>30.4188</ele>
        <time>2011-01-17T20:23:26Z</time>
      </trkpt>
      <trkpt lat="59.5312887" lon="17.8645147">
        <ele>31.3801</ele>
        <time>2011-01-17T20:23:31Z</time>
      </trkpt>
      <trkpt lat="59.5312364" lon="17.8646547">
        <ele>29.9381</ele>
        <time>2011-01-17T20:23:35Z</time>
      </trkpt>
      <trkpt lat="59.5311688" lon="17.864763">
        <ele>28.4962</ele>
        <time>2011-01-17T20:23:39Z</time>
      </trkpt>
      <trkpt lat="59.5311342" lon="17.8648524">
        <ele>26.0929</ele>
        <time>2011-01-17T20:23:42Z</time>
      </trkpt>
      <trkpt lat="59.5310201" lon="17.8650594">
        <ele>27.5349</ele>
        <time>2011-01-17T20:23:48Z</time>
      </trkpt>
      <trkpt lat="59.531004" lon="17.8650877">
        <ele>28.0155</ele>
        <time>2011-01-17T20:23:49Z</time>
      </trkpt>
      <trkpt lat="59.5309595" lon="17.8652218">
        <ele>28.9769</ele>
        <time>2011-01-17T20:23:53Z</time>
      </trkpt>
      <trkpt lat="59.5310131" lon="17.8653671">
        <ele>29.4575</ele>
        <time>2011-01-17T20:23:58Z</time>
      </trkpt>
      <trkpt lat="59.5311074" lon="17.8654354">
        <ele>30.4188</ele>
        <time>2011-01-17T20:24:03Z</time>
      </trkpt>
      <trkpt lat="59.5311962" lon="17.86544">
        <ele>28.9769</ele>
        <time>2011-01-17T20:24:07Z</time>
      </trkpt>
      <trkpt lat="59.5313328" lon="17.8653867">
        <ele>27.0543</ele>
        <time>2011-01-17T20:24:13Z</time>
      </trkpt>
      <trkpt lat="59.5314319" lon="17.8653407">
        <ele>26.5736</ele>
        <time>2011-01-17T20:24:18Z</time>
      </trkpt>
      <trkpt lat="59.5314489" lon="17.8653286">
        <ele>26.5736</ele>
        <time>2011-01-17T20:24:19Z</time>
      </trkpt>
      <trkpt lat="59.5315515" lon="17.8654181">
        <ele>26.0929</ele>
        <time>2011-01-17T20:24:25Z</time>
      </trkpt>
      <trkpt lat="59.5315933" lon="17.8655774">
        <ele>25.1317</ele>
        <time>2011-01-17T20:24:30Z</time>
      </trkpt>
      <trkpt lat="59.5316172" lon="17.8656876">
        <ele>25.6123</ele>
        <time>2011-01-17T20:24:33Z</time>
      </trkpt>
      <trkpt lat="59.5316356" lon="17.8658587">
        <ele>26.5736</ele>
        <time>2011-01-17T20:24:38Z</time>
      </trkpt>
      <trkpt lat="59.5316474" lon="17.8658954">
        <ele>27.0543</ele>
        <time>2011-01-17T20:24:39Z</time>
      </trkpt>
      <trkpt lat="59.5316886" lon="17.8661226">
        <ele>27.0543</ele>
        <time>2011-01-17T20:24:44Z</time>
      </trkpt>
      <trkpt lat="59.5317233" lon="17.8663981">
        <ele>26.0929</ele>
        <time>2011-01-17T20:24:48Z</time>
      </trkpt>
      <trkpt lat="59.5317016" lon="17.866562">
        <ele>26.0929</ele>
        <time>2011-01-17T20:24:51Z</time>
      </trkpt>
      <trkpt lat="59.5316451" lon="17.8667077">
        <ele>26.0929</ele>
        <time>2011-01-17T20:24:55Z</time>
      </trkpt>
      <trkpt lat="59.5315685" lon="17.8668464">
        <ele>26.0929</ele>
        <time>2011-01-17T20:25:00Z</time>
      </trkpt>
      <trkpt lat="59.5315018" lon="17.8669475">
        <ele>24.651</ele>
        <time>2011-01-17T20:25:04Z</time>
      </trkpt>
      <trkpt lat="59.5314697" lon="17.8669889">
        <ele>24.651</ele>
        <time>2011-01-17T20:25:06Z</time>
      </trkpt>
      <trkpt lat="59.5313915" lon="17.8671593">
        <ele>24.651</ele>
        <time>2011-01-17T20:25:11Z</time>
      </trkpt>
      <trkpt lat="59.5313859" lon="17.8671868">
        <ele>24.651</ele>
        <time>2011-01-17T20:25:12Z</time>
      </trkpt>
      <trkpt lat="59.5314211" lon="17.8673614">
        <ele>26.0929</ele>
        <time>2011-01-17T20:25:17Z</time>
      </trkpt>
      <trkpt lat="59.5315054" lon="17.8674899">
        <ele>25.6123</ele>
        <time>2011-01-17T20:25:22Z</time>
      </trkpt>
      <trkpt lat="59.5315859" lon="17.8675973">
        <ele>25.6123</ele>
        <time>2011-01-17T20:25:26Z</time>
      </trkpt>
      <trkpt lat="59.5316759" lon="17.8677095">
        <ele>23.6896</ele>
        <time>2011-01-17T20:25:31Z</time>
      </trkpt>
      <trkpt lat="59.5317484" lon="17.8678814">
        <ele>21.767</ele>
        <time>2011-01-17T20:25:36Z</time>
      </trkpt>
      <trkpt lat="59.5318088" lon="17.8680441">
        <ele>19.8444</ele>
        <time>2011-01-17T20:25:41Z</time>
      </trkpt>
      <trkpt lat="59.5318562" lon="17.8682632">
        <ele>19.3638</ele>
        <time>2011-01-17T20:25:46Z</time>
      </trkpt>
      <trkpt lat="59.5318986" lon="17.8683997">
        <ele>17.4412</ele>
        <time>2011-01-17T20:25:50Z</time>
      </trkpt>
      <trkpt lat="59.5319332" lon="17.8685496">
        <ele>16.9604</ele>
        <time>2011-01-17T20:25:54Z</time>
      </trkpt>
      <trkpt lat="59.5319685" lon="17.8687268">
        <ele>16.4797</ele>
        <time>2011-01-17T20:25:58Z</time>
      </trkpt>
      <trkpt lat="59.5320213" lon="17.8689212">
        <ele>15.999</ele>
        <time>2011-01-17T20:26:03Z</time>
      </trkpt>
      <trkpt lat="59.5320722" lon="17.8690619">
        <ele>15.5184</ele>
        <time>2011-01-17T20:26:07Z</time>
      </trkpt>
      <trkpt lat="59.5321429" lon="17.8692173">
        <ele>15.5184</ele>
        <time>2011-01-17T20:26:12Z</time>
      </trkpt>
      <trkpt lat="59.532197" lon="17.8693494">
        <ele>15.999</ele>
        <time>2011-01-17T20:26:16Z</time>
      </trkpt>
      <trkpt lat="59.5322275" lon="17.86941">
        <ele>15.999</ele>
        <time>2011-01-17T20:26:18Z</time>
      </trkpt>
      <trkpt lat="59.5323087" lon="17.869537">
        <ele>16.4797</ele>
        <time>2011-01-17T20:26:23Z</time>
      </trkpt>
      <trkpt lat="59.5323346" lon="17.869595">
        <ele>15.999</ele>
        <time>2011-01-17T20:26:25Z</time>
      </trkpt>
      <trkpt lat="59.5323865" lon="17.8697399">
        <ele>16.4797</ele>
        <time>2011-01-17T20:26:30Z</time>
      </trkpt>
      <trkpt lat="59.5323959" lon="17.869767">
        <ele>15.999</ele>
        <time>2011-01-17T20:26:31Z</time>
      </trkpt>
      <trkpt lat="59.5324649" lon="17.869994">
        <ele>15.5184</ele>
        <time>2011-01-17T20:26:37Z</time>
      </trkpt>
      <trkpt lat="59.532513" lon="17.8701591">
        <ele>15.999</ele>
        <time>2011-01-17T20:26:42Z</time>
      </trkpt>
      <trkpt lat="59.5325493" lon="17.8702884">
        <ele>15.999</ele>
        <time>2011-01-17T20:26:46Z</time>
      </trkpt>
      <trkpt lat="59.5325901" lon="17.8704383">
        <ele>15.0377</ele>
        <time>2011-01-17T20:26:50Z</time>
      </trkpt>
      <trkpt lat="59.532643" lon="17.8706398">
        <ele>14.0764</ele>
        <time>2011-01-17T20:26:55Z</time>
      </trkpt>
      <trkpt lat="59.5326827" lon="17.8707973">
        <ele>13.1151</ele>
        <time>2011-01-17T20:26:59Z</time>
      </trkpt>
      <trkpt lat="59.5327347" lon="17.8709908">
        <ele>13.1151</ele>
        <time>2011-01-17T20:27:04Z</time>
      </trkpt>
      <trkpt lat="59.5327538" lon="17.8711599">
        <ele>13.5958</ele>
        <time>2011-01-17T20:27:08Z</time>
      </trkpt>
      <trkpt lat="59.532754" lon="17.8711987">
        <ele>13.5958</ele>
        <time>2011-01-17T20:27:09Z</time>
      </trkpt>
      <trkpt lat="59.5327481" lon="17.8713778">
        <ele>14.557</ele>
        <time>2011-01-17T20:27:14Z</time>
      </trkpt>
      <trkpt lat="59.5327517" lon="17.8715763">
        <ele>15.999</ele>
        <time>2011-01-17T20:27:19Z</time>
      </trkpt>
      <trkpt lat="59.5327673" lon="17.8717006">
        <ele>17.9218</ele>
        <time>2011-01-17T20:27:22Z</time>
      </trkpt>
      <trkpt lat="59.5327917" lon="17.8719255">
        <ele>19.8444</ele>
        <time>2011-01-17T20:27:27Z</time>
      </trkpt>
      <trkpt lat="59.5327985" lon="17.8720973">
        <ele>20.325</ele>
        <time>2011-01-17T20:27:31Z</time>
      </trkpt>
      <trkpt lat="59.5328128" lon="17.8722962">
        <ele>21.767</ele>
        <time>2011-01-17T20:27:36Z</time>
      </trkpt>
      <trkpt lat="59.5328158" lon="17.8723359">
        <ele>22.2476</ele>
        <time>2011-01-17T20:27:37Z</time>
      </trkpt>
      <trkpt lat="59.5328607" lon="17.8725424">
        <ele>24.1703</ele>
        <time>2011-01-17T20:27:42Z</time>
      </trkpt>
      <trkpt lat="59.5329403" lon="17.8726823">
        <ele>29.9381</ele>
        <time>2011-01-17T20:27:46Z</time>
      </trkpt>
      <trkpt lat="59.5329909" lon="17.8727277">
        <ele>34.2642</ele>
        <time>2011-01-17T20:27:48Z</time>
      </trkpt>
      <trkpt lat="59.5330674" lon="17.8727631">
        <ele>33.3029</ele>
        <time>2011-01-17T20:27:52Z</time>
      </trkpt>
      <trkpt lat="59.5331957" lon="17.8727469">
        <ele>31.3801</ele>
        <time>2011-01-17T20:27:57Z</time>
      </trkpt>
      <trkpt lat="59.5333256" lon="17.8728672">
        <ele>29.4575</ele>
        <time>2011-01-17T20:28:02Z</time>
      </trkpt>
      <trkpt lat="59.5333703" lon="17.8729879">
        <ele>29.4575</ele>
        <time>2011-01-17T20:28:05Z</time>
      </trkpt>
      <trkpt lat="59.5333981" lon="17.8731214">
        <ele>28.0155</ele>
        <time>2011-01-17T20:28:09Z</time>
      </trkpt>
      <trkpt lat="59.5334159" lon="17.8731999">
        <ele>27.0543</ele>
        <time>2011-01-17T20:28:11Z</time>
      </trkpt>
      <trkpt lat="59.5335257" lon="17.8733562">
        <ele>24.1703</ele>
        <time>2011-01-17T20:28:17Z</time>
      </trkpt>
      <trkpt lat="59.5336442" lon="17.8734407">
        <ele>24.1703</ele>
        <time>2011-01-17T20:28:22Z</time>
      </trkpt>
      <trkpt lat="59.5337416" lon="17.8735468">
        <ele>23.6896</ele>
        <time>2011-01-17T20:28:26Z</time>
      </trkpt>
      <trkpt lat="59.5338194" lon="17.8737168">
        <ele>23.6896</ele>
        <time>2011-01-17T20:28:30Z</time>
      </trkpt>
      <trkpt lat="59.5338498" lon="17.8738782">
        <ele>23.6896</ele>
        <time>2011-01-17T20:28:34Z</time>
      </trkpt>
      <trkpt lat="59.5338594" lon="17.8739991">
        <ele>23.209</ele>
        <time>2011-01-17T20:28:37Z</time>
      </trkpt>
      <trkpt lat="59.5338223" lon="17.8742202">
        <ele>22.2476</ele>
        <time>2011-01-17T20:28:42Z</time>
      </trkpt>
      <trkpt lat="59.5337825" lon="17.8743677">
        <ele>22.2476</ele>
        <time>2011-01-17T20:28:46Z</time>
      </trkpt>
      <trkpt lat="59.5337869" lon="17.8743995">
        <ele>22.2476</ele>
        <time>2011-01-17T20:28:47Z</time>
      </trkpt>
      <trkpt lat="59.5338446" lon="17.8745335">
        <ele>22.2476</ele>
        <time>2011-01-17T20:28:54Z</time>
      </trkpt>
      <trkpt lat="59.5338837" lon="17.8746316">
        <ele>22.2476</ele>
        <time>2011-01-17T20:28:57Z</time>
      </trkpt>
      <trkpt lat="59.5339489" lon="17.8747668">
        <ele>21.767</ele>
        <time>2011-01-17T20:29:04Z</time>
      </trkpt>
      <trkpt lat="59.5339753" lon="17.8748248">
        <ele>21.767</ele>
        <time>2011-01-17T20:29:07Z</time>
      </trkpt>
      <trkpt lat="59.5340059" lon="17.8747518">
        <ele>21.2864</ele>
        <time>2011-01-17T20:29:13Z</time>
      </trkpt>
      <trkpt lat="59.5340136" lon="17.8746397">
        <ele>20.8057</ele>
        <time>2011-01-17T20:29:16Z</time>
      </trkpt>
      <trkpt lat="59.5340183" lon="17.8743919">
        <ele>20.8057</ele>
        <time>2011-01-17T20:29:22Z</time>
      </trkpt>
      <trkpt lat="59.5340157" lon="17.8742234">
        <ele>21.2864</ele>
        <time>2011-01-17T20:29:26Z</time>
      </trkpt>
      <trkpt lat="59.5340164" lon="17.8741862">
        <ele>20.8057</ele>
        <time>2011-01-17T20:29:27Z</time>
      </trkpt>
      <trkpt lat="59.534024" lon="17.8740135">
        <ele>21.2864</ele>
        <time>2011-01-17T20:29:31Z</time>
      </trkpt>
      <trkpt lat="59.534015" lon="17.8739441">
        <ele>20.8057</ele>
        <time>2011-01-17T20:29:33Z</time>
      </trkpt>
      <trkpt lat="59.5339764" lon="17.8737479">
        <ele>20.8057</ele>
        <time>2011-01-17T20:29:38Z</time>
      </trkpt>
      <trkpt lat="59.5339421" lon="17.8736127">
        <ele>20.8057</ele>
        <time>2011-01-17T20:29:42Z</time>
      </trkpt>
      <trkpt lat="59.5338784" lon="17.873374">
        <ele>21.2864</ele>
        <time>2011-01-17T20:29:49Z</time>
      </trkpt>
      <trkpt lat="59.5338023" lon="17.8732502">
        <ele>21.767</ele>
        <time>2011-01-17T20:29:54Z</time>
      </trkpt>
      <trkpt lat="59.533732" lon="17.8731687">
        <ele>21.2864</ele>
        <time>2011-01-17T20:29:59Z</time>
      </trkpt>
      <trkpt lat="59.5336666" lon="17.8730158">
        <ele>21.2864</ele>
        <time>2011-01-17T20:30:04Z</time>
      </trkpt>
      <trkpt lat="59.5336416" lon="17.8729554">
        <ele>21.2864</ele>
        <time>2011-01-17T20:30:06Z</time>
      </trkpt>
      <trkpt lat="59.5335361" lon="17.8727039">
        <ele>22.2476</ele>
        <time>2011-01-17T20:30:13Z</time>
      </trkpt>
      <trkpt lat="59.5334795" lon="17.8725839">
        <ele>22.7283</ele>
        <time>2011-01-17T20:30:17Z</time>
      </trkpt>
      <trkpt lat="59.5334053" lon="17.8724062">
        <ele>23.6896</ele>
        <time>2011-01-17T20:30:23Z</time>
      </trkpt>
      <trkpt lat="59.5333144" lon="17.8721757">
        <ele>24.1703</ele>
        <time>2011-01-17T20:30:31Z</time>
      </trkpt>
      <trkpt lat="59.5332772" lon="17.8720677">
        <ele>24.651</ele>
        <time>2011-01-17T20:30:35Z</time>
      </trkpt>
      <trkpt lat="59.5332278" lon="17.8718758">
        <ele>24.651</ele>
        <time>2011-01-17T20:30:42Z</time>
      </trkpt>
      <trkpt lat="59.5332061" lon="17.8716891">
        <ele>24.651</ele>
        <time>2011-01-17T20:30:47Z</time>
      </trkpt>
      <trkpt lat="59.5331942" lon="17.8715054">
        <ele>24.651</ele>
        <time>2011-01-17T20:30:52Z</time>
      </trkpt>
      <trkpt lat="59.5331849" lon="17.8713934">
        <ele>24.1703</ele>
        <time>2011-01-17T20:30:56Z</time>
      </trkpt>
      <trkpt lat="59.5331698" lon="17.8712232">
        <ele>24.1703</ele>
        <time>2011-01-17T20:31:00Z</time>
      </trkpt>
      <trkpt lat="59.5331681" lon="17.8710144">
        <ele>24.1703</ele>
        <time>2011-01-17T20:31:05Z</time>
      </trkpt>
      <trkpt lat="59.5332043" lon="17.8708175">
        <ele>23.6896</ele>
        <time>2011-01-17T20:31:10Z</time>
      </trkpt>
      <trkpt lat="59.5332613" lon="17.8706621">
        <ele>23.209</ele>
        <time>2011-01-17T20:31:15Z</time>
      </trkpt>
      <trkpt lat="59.5333045" lon="17.8704663">
        <ele>22.7283</ele>
        <time>2011-01-17T20:31:20Z</time>
      </trkpt>
      <trkpt lat="59.5333" lon="17.8703543">
        <ele>22.7283</ele>
        <time>2011-01-17T20:31:23Z</time>
      </trkpt>
      <trkpt lat="59.5332717" lon="17.8702226">
        <ele>23.209</ele>
        <time>2011-01-17T20:31:27Z</time>
      </trkpt>
      <trkpt lat="59.5332246" lon="17.8701042">
        <ele>23.209</ele>
        <time>2011-01-17T20:31:31Z</time>
      </trkpt>
      <trkpt lat="59.5331733" lon="17.869988">
        <ele>23.6896</ele>
        <time>2011-01-17T20:31:35Z</time>
      </trkpt>
      <trkpt lat="59.5331003" lon="17.8698156">
        <ele>24.1703</ele>
        <time>2011-01-17T20:31:40Z</time>
      </trkpt>
      <trkpt lat="59.5330246" lon="17.8695702">
        <ele>23.6896</ele>
        <time>2011-01-17T20:31:46Z</time>
      </trkpt>
      <trkpt lat="59.5329636" lon="17.8694021">
        <ele>22.2476</ele>
        <time>2011-01-17T20:31:50Z</time>
      </trkpt>
      <trkpt lat="59.5329163" lon="17.8692928">
        <ele>21.2864</ele>
        <time>2011-01-17T20:31:53Z</time>
      </trkpt>
      <trkpt lat="59.5328517" lon="17.869121">
        <ele>21.2864</ele>
        <time>2011-01-17T20:31:58Z</time>
      </trkpt>
      <trkpt lat="59.5327948" lon="17.8689796">
        <ele>21.767</ele>
        <time>2011-01-17T20:32:02Z</time>
      </trkpt>
      <trkpt lat="59.532739" lon="17.868848">
        <ele>22.2476</ele>
        <time>2011-01-17T20:32:06Z</time>
      </trkpt>
      <trkpt lat="59.5326845" lon="17.86871">
        <ele>22.2476</ele>
        <time>2011-01-17T20:32:10Z</time>
      </trkpt>
      <trkpt lat="59.5326315" lon="17.8685749">
        <ele>22.7283</ele>
        <time>2011-01-17T20:32:14Z</time>
      </trkpt>
      <trkpt lat="59.532546" lon="17.868398">
        <ele>23.6896</ele>
        <time>2011-01-17T20:32:19Z</time>
      </trkpt>
      <trkpt lat="59.532505" lon="17.8683025">
        <ele>24.1703</ele>
        <time>2011-01-17T20:32:22Z</time>
      </trkpt>
      <trkpt lat="59.5324356" lon="17.8681358">
        <ele>24.651</ele>
        <time>2011-01-17T20:32:27Z</time>
      </trkpt>
      <trkpt lat="59.5323638" lon="17.8679649">
        <ele>25.1317</ele>
        <time>2011-01-17T20:32:32Z</time>
      </trkpt>
      <trkpt lat="59.5323041" lon="17.8678364">
        <ele>25.1317</ele>
        <time>2011-01-17T20:32:36Z</time>
      </trkpt>
      <trkpt lat="59.5322861" lon="17.8678079">
        <ele>25.1317</ele>
        <time>2011-01-17T20:32:37Z</time>
      </trkpt>
      <trkpt lat="59.5322224" lon="17.867641">
        <ele>24.1703</ele>
        <time>2011-01-17T20:32:42Z</time>
      </trkpt>
      <trkpt lat="59.5321768" lon="17.8675126">
        <ele>23.6896</ele>
        <time>2011-01-17T20:32:46Z</time>
      </trkpt>
      <trkpt lat="59.5320968" lon="17.8673349">
        <ele>23.6896</ele>
        <time>2011-01-17T20:32:51Z</time>
      </trkpt>
      <trkpt lat="59.5320505" lon="17.8671971">
        <ele>23.209</ele>
        <time>2011-01-17T20:32:55Z</time>
      </trkpt>
      <trkpt lat="59.5320002" lon="17.8670204">
        <ele>24.1703</ele>
        <time>2011-01-17T20:33:00Z</time>
      </trkpt>
      <trkpt lat="59.5319813" lon="17.8669203">
        <ele>24.1703</ele>
        <time>2011-01-17T20:33:03Z</time>
      </trkpt>
      <trkpt lat="59.5319504" lon="17.8666949">
        <ele>24.651</ele>
        <time>2011-01-17T20:33:09Z</time>
      </trkpt>
      <trkpt lat="59.5319245" lon="17.8665076">
        <ele>25.1317</ele>
        <time>2011-01-17T20:33:14Z</time>
      </trkpt>
      <trkpt lat="59.5319002" lon="17.866327">
        <ele>25.1317</ele>
        <time>2011-01-17T20:33:19Z</time>
      </trkpt>
      <trkpt lat="59.5318756" lon="17.8661705">
        <ele>25.1317</ele>
        <time>2011-01-17T20:33:24Z</time>
      </trkpt>
      <trkpt lat="59.5318593" lon="17.8660449">
        <ele>25.1317</ele>
        <time>2011-01-17T20:33:28Z</time>
      </trkpt>
      <trkpt lat="59.5318365" lon="17.8658538">
        <ele>24.651</ele>
        <time>2011-01-17T20:33:33Z</time>
      </trkpt>
      <trkpt lat="59.5318112" lon="17.8656767">
        <ele>24.1703</ele>
        <time>2011-01-17T20:33:38Z</time>
      </trkpt>
      <trkpt lat="59.5317898" lon="17.8655414">
        <ele>24.1703</ele>
        <time>2011-01-17T20:33:42Z</time>
      </trkpt>
      <trkpt lat="59.531769" lon="17.8653813">
        <ele>24.651</ele>
        <time>2011-01-17T20:33:46Z</time>
      </trkpt>
      <trkpt lat="59.5317628" lon="17.865338">
        <ele>24.651</ele>
        <time>2011-01-17T20:33:47Z</time>
      </trkpt>
      <trkpt lat="59.5317515" lon="17.8652117">
        <ele>24.651</ele>
        <time>2011-01-17T20:33:51Z</time>
      </trkpt>
      <trkpt lat="59.5317369" lon="17.8650137">
        <ele>25.6123</ele>
        <time>2011-01-17T20:33:56Z</time>
      </trkpt>
      <trkpt lat="59.5317391" lon="17.8648691">
        <ele>25.6123</ele>
        <time>2011-01-17T20:34:00Z</time>
      </trkpt>
      <trkpt lat="59.5317956" lon="17.8647108">
        <ele>25.6123</ele>
        <time>2011-01-17T20:34:07Z</time>
      </trkpt>
      <trkpt lat="59.5318012" lon="17.8646951">
        <ele>25.6123</ele>
        <time>2011-01-17T20:34:08Z</time>
      </trkpt>
      <trkpt lat="59.5318316" lon="17.8645752">
        <ele>25.6123</ele>
        <time>2011-01-17T20:34:14Z</time>
      </trkpt>
      <trkpt lat="59.5318613" lon="17.8644877">
        <ele>25.6123</ele>
        <time>2011-01-17T20:34:19Z</time>
      </trkpt>
      <trkpt lat="59.5319033" lon="17.8643525">
        <ele>26.0929</ele>
        <time>2011-01-17T20:34:25Z</time>
      </trkpt>
      <trkpt lat="59.5319297" lon="17.8642627">
        <ele>25.6123</ele>
        <time>2011-01-17T20:34:30Z</time>
      </trkpt>
      <trkpt lat="59.5319723" lon="17.8641205">
        <ele>25.1317</ele>
        <time>2011-01-17T20:34:36Z</time>
      </trkpt>
      <trkpt lat="59.5319778" lon="17.864103">
        <ele>25.1317</ele>
        <time>2011-01-17T20:34:41Z</time>
      </trkpt>
      <trkpt lat="59.5319986" lon="17.864029">
        <ele>25.1317</ele>
        <time>2011-01-17T20:34:46Z</time>
      </trkpt>
      <trkpt lat="59.5320193" lon="17.8639792">
        <ele>25.1317</ele>
        <time>2011-01-17T20:34:51Z</time>
      </trkpt>
      <trkpt lat="59.5320561" lon="17.863873">
        <ele>25.1317</ele>
        <time>2011-01-17T20:34:57Z</time>
      </trkpt>
      <trkpt lat="59.5320912" lon="17.8637638">
        <ele>25.6123</ele>
        <time>2011-01-17T20:35:03Z</time>
      </trkpt>
      <trkpt lat="59.5321232" lon="17.8636682">
        <ele>25.1317</ele>
        <time>2011-01-17T20:35:08Z</time>
      </trkpt>
      <trkpt lat="59.5321393" lon="17.8636177">
        <ele>25.1317</ele>
        <time>2011-01-17T20:35:11Z</time>
      </trkpt>
      <trkpt lat="59.532185" lon="17.8635032">
        <ele>24.1703</ele>
        <time>2011-01-17T20:35:16Z</time>
      </trkpt>
      <trkpt lat="59.5322006" lon="17.8634882">
        <ele>24.1703</ele>
        <time>2011-01-17T20:35:17Z</time>
      </trkpt>
      <trkpt lat="59.5322157" lon="17.863487">
        <ele>23.6896</ele>
        <time>2011-01-17T20:35:18Z</time>
      </trkpt>
      <trkpt lat="59.5322358" lon="17.8635172">
        <ele>28.9769</ele>
        <time>2011-01-17T20:35:55Z</time>
      </trkpt>
      <trkpt lat="59.5322364" lon="17.8635363">
        <ele>28.9769</ele>
        <time>2011-01-17T20:35:56Z</time>
      </trkpt>
      <trkpt lat="59.5322406" lon="17.8635804">
        <ele>28.9769</ele>
        <time>2011-01-17T20:35:57Z</time>
      </trkpt>
      <trkpt lat="59.53227" lon="17.8638083">
        <ele>28.4962</ele>
        <time>2011-01-17T20:36:03Z</time>
      </trkpt>
      <trkpt lat="59.5323089" lon="17.8640482">
        <ele>27.0543</ele>
        <time>2011-01-17T20:36:08Z</time>
      </trkpt>
      <trkpt lat="59.5323478" lon="17.8643015">
        <ele>25.6123</ele>
        <time>2011-01-17T20:36:13Z</time>
      </trkpt>
      <trkpt lat="59.5323788" lon="17.8645756">
        <ele>23.6896</ele>
        <time>2011-01-17T20:36:18Z</time>
      </trkpt>
      <trkpt lat="59.5324083" lon="17.8649084">
        <ele>22.7283</ele>
        <time>2011-01-17T20:36:22Z</time>
      </trkpt>
      <trkpt lat="59.53244" lon="17.8651612">
        <ele>21.2864</ele>
        <time>2011-01-17T20:36:26Z</time>
      </trkpt>
      <trkpt lat="59.5324524" lon="17.8653633">
        <ele>23.209</ele>
        <time>2011-01-17T20:36:30Z</time>
      </trkpt>
      <trkpt lat="59.5324973" lon="17.8656192">
        <ele>22.7283</ele>
        <time>2011-01-17T20:36:35Z</time>
      </trkpt>
      <trkpt lat="59.532544" lon="17.8658321">
        <ele>22.2476</ele>
        <time>2011-01-17T20:36:39Z</time>
      </trkpt>
      <trkpt lat="59.5326144" lon="17.8661062">
        <ele>21.2864</ele>
        <time>2011-01-17T20:36:44Z</time>
      </trkpt>
      <trkpt lat="59.5326767" lon="17.8663346">
        <ele>21.767</ele>
        <time>2011-01-17T20:36:48Z</time>
      </trkpt>
      <trkpt lat="59.5327366" lon="17.8665627">
        <ele>21.767</ele>
        <time>2011-01-17T20:36:52Z</time>
      </trkpt>
      <trkpt lat="59.5328155" lon="17.8668129">
        <ele>21.767</ele>
        <time>2011-01-17T20:36:57Z</time>
      </trkpt>
      <trkpt lat="59.5328808" lon="17.8669954">
        <ele>22.2476</ele>
        <time>2011-01-17T20:37:01Z</time>
      </trkpt>
      <trkpt lat="59.5329215" lon="17.8671148">
        <ele>22.2476</ele>
        <time>2011-01-17T20:37:04Z</time>
      </trkpt>
      <trkpt lat="59.5329792" lon="17.8673028">
        <ele>22.2476</ele>
        <time>2011-01-17T20:37:08Z</time>
      </trkpt>
      <trkpt lat="59.533033" lon="17.8675375">
        <ele>23.209</ele>
        <time>2011-01-17T20:37:13Z</time>
      </trkpt>
      <trkpt lat="59.5330662" lon="17.867739">
        <ele>23.209</ele>
        <time>2011-01-17T20:37:17Z</time>
      </trkpt>
      <trkpt lat="59.53313" lon="17.867985">
        <ele>22.7283</ele>
        <time>2011-01-17T20:37:22Z</time>
      </trkpt>
      <trkpt lat="59.5331776" lon="17.8681435">
        <ele>21.2864</ele>
        <time>2011-01-17T20:37:26Z</time>
      </trkpt>
      <trkpt lat="59.5332345" lon="17.8683585">
        <ele>22.2476</ele>
        <time>2011-01-17T20:37:31Z</time>
      </trkpt>
      <trkpt lat="59.5333091" lon="17.8685784">
        <ele>21.2864</ele>
        <time>2011-01-17T20:37:37Z</time>
      </trkpt>
      <trkpt lat="59.5333754" lon="17.86875">
        <ele>21.2864</ele>
        <time>2011-01-17T20:37:42Z</time>
      </trkpt>
      <trkpt lat="59.5334491" lon="17.8689361">
        <ele>20.325</ele>
        <time>2011-01-17T20:37:47Z</time>
      </trkpt>
      <trkpt lat="59.5335054" lon="17.8690949">
        <ele>20.8057</ele>
        <time>2011-01-17T20:37:51Z</time>
      </trkpt>
      <trkpt lat="59.5335778" lon="17.8692536">
        <ele>20.325</ele>
        <time>2011-01-17T20:37:55Z</time>
      </trkpt>
      <trkpt lat="59.5336319" lon="17.8693873">
        <ele>20.325</ele>
        <time>2011-01-17T20:37:59Z</time>
      </trkpt>
      <trkpt lat="59.5337235" lon="17.8696865">
        <ele>21.767</ele>
        <time>2011-01-17T20:38:05Z</time>
      </trkpt>
      <trkpt lat="59.5338511" lon="17.8698986">
        <ele>20.8057</ele>
        <time>2011-01-17T20:38:11Z</time>
      </trkpt>
      <trkpt lat="59.5339751" lon="17.8700007">
        <ele>19.3638</ele>
        <time>2011-01-17T20:38:16Z</time>
      </trkpt>
      <trkpt lat="59.5340877" lon="17.870132">
        <ele>19.8444</ele>
        <time>2011-01-17T20:38:21Z</time>
      </trkpt>
      <trkpt lat="59.5341697" lon="17.8702245">
        <ele>20.8057</ele>
        <time>2011-01-17T20:38:25Z</time>
      </trkpt>
      <trkpt lat="59.5342182" lon="17.870283">
        <ele>19.8444</ele>
        <time>2011-01-17T20:38:28Z</time>
      </trkpt>
      <trkpt lat="59.5343264" lon="17.8702916">
        <ele>19.8444</ele>
        <time>2011-01-17T20:38:34Z</time>
      </trkpt>
      <trkpt lat="59.5344175" lon="17.8703026">
        <ele>20.8057</ele>
        <time>2011-01-17T20:38:40Z</time>
      </trkpt>
      <trkpt lat="59.534525" lon="17.8703006">
        <ele>23.209</ele>
        <time>2011-01-17T20:38:46Z</time>
      </trkpt>
      <trkpt lat="59.5345813" lon="17.8703586">
        <ele>24.651</ele>
        <time>2011-01-17T20:38:51Z</time>
      </trkpt>
      <trkpt lat="59.5346498" lon="17.8704803">
        <ele>25.1317</ele>
        <time>2011-01-17T20:38:55Z</time>
      </trkpt>
      <trkpt lat="59.5347433" lon="17.8706702">
        <ele>26.0929</ele>
        <time>2011-01-17T20:39:00Z</time>
      </trkpt>
      <trkpt lat="59.5348389" lon="17.8708658">
        <ele>27.0543</ele>
        <time>2011-01-17T20:39:05Z</time>
      </trkpt>
      <trkpt lat="59.5349326" lon="17.8710205">
        <ele>26.5736</ele>
        <time>2011-01-17T20:39:09Z</time>
      </trkpt>
      <trkpt lat="59.5350186" lon="17.8711747">
        <ele>27.5349</ele>
        <time>2011-01-17T20:39:13Z</time>
      </trkpt>
      <trkpt lat="59.535088" lon="17.8713211">
        <ele>28.0155</ele>
        <time>2011-01-17T20:39:18Z</time>
      </trkpt>
      <trkpt lat="59.5351729" lon="17.8715018">
        <ele>28.0155</ele>
        <time>2011-01-17T20:39:23Z</time>
      </trkpt>
      <trkpt lat="59.5352567" lon="17.8716746">
        <ele>27.0543</ele>
        <time>2011-01-17T20:39:27Z</time>
      </trkpt>
      <trkpt lat="59.5353947" lon="17.8719296">
        <ele>26.5736</ele>
        <time>2011-01-17T20:39:33Z</time>
      </trkpt>
      <trkpt lat="59.5354781" lon="17.8720756">
        <ele>28.0155</ele>
        <time>2011-01-17T20:39:37Z</time>
      </trkpt>
      <trkpt lat="59.5355661" lon="17.8721929">
        <ele>31.3801</ele>
        <time>2011-01-17T20:39:41Z</time>
      </trkpt>
      <trkpt lat="59.5356597" lon="17.8723426">
        <ele>32.3416</ele>
        <time>2011-01-17T20:39:45Z</time>
      </trkpt>
      <trkpt lat="59.535738" lon="17.8725425">
        <ele>31.8607</ele>
        <time>2011-01-17T20:39:49Z</time>
      </trkpt>
      <trkpt lat="59.5358381" lon="17.8727284">
        <ele>32.3416</ele>
        <time>2011-01-17T20:39:53Z</time>
      </trkpt>
      <trkpt lat="59.5359795" lon="17.8729103">
        <ele>35.7061</ele>
        <time>2011-01-17T20:39:58Z</time>
      </trkpt>
      <trkpt lat="59.5360821" lon="17.8730216">
        <ele>34.7449</ele>
        <time>2011-01-17T20:40:02Z</time>
      </trkpt>
      <trkpt lat="59.5361959" lon="17.8731352">
        <ele>36.1868</ele>
        <time>2011-01-17T20:40:06Z</time>
      </trkpt>
      <trkpt lat="59.5363287" lon="17.8732987">
        <ele>34.2642</ele>
        <time>2011-01-17T20:40:11Z</time>
      </trkpt>
      <trkpt lat="59.5364" lon="17.8734493">
        <ele>32.3416</ele>
        <time>2011-01-17T20:40:15Z</time>
      </trkpt>
      <trkpt lat="59.5364763" lon="17.8737669">
        <ele>31.8607</ele>
        <time>2011-01-17T20:40:20Z</time>
      </trkpt>
      <trkpt lat="59.5365005" lon="17.8740916">
        <ele>28.0155</ele>
        <time>2011-01-17T20:40:24Z</time>
      </trkpt>
      <trkpt lat="59.5364909" lon="17.8742343">
        <ele>27.0543</ele>
        <time>2011-01-17T20:40:25Z</time>
      </trkpt>
      <trkpt lat="59.5363892" lon="17.8748646">
        <ele>23.6896</ele>
        <time>2011-01-17T20:40:29Z</time>
      </trkpt>
      <trkpt lat="59.5363187" lon="17.8753029">
        <ele>20.8057</ele>
        <time>2011-01-17T20:40:33Z</time>
      </trkpt>
      <trkpt lat="59.5362929" lon="17.8755033">
        <ele>19.8444</ele>
        <time>2011-01-17T20:40:35Z</time>
      </trkpt>
      <trkpt lat="59.53628" lon="17.8755925">
        <ele>19.8444</ele>
        <time>2011-01-17T20:40:36Z</time>
      </trkpt>
      <trkpt lat="59.5362271" lon="17.8759324">
        <ele>19.3638</ele>
        <time>2011-01-17T20:40:40Z</time>
      </trkpt>
      <trkpt lat="59.5362094" lon="17.8760065">
        <ele>19.3638</ele>
        <time>2011-01-17T20:40:41Z</time>
      </trkpt>
      <trkpt lat="59.5361112" lon="17.8763102">
        <ele>18.4023</ele>
        <time>2011-01-17T20:40:48Z</time>
      </trkpt>
      <trkpt lat="59.5360651" lon="17.8763779">
        <ele>18.8831</ele>
        <time>2011-01-17T20:40:51Z</time>
      </trkpt>
      <trkpt lat="59.5359783" lon="17.8763828">
        <ele>17.4412</ele>
        <time>2011-01-17T20:40:55Z</time>
      </trkpt>
      <trkpt lat="59.5359001" lon="17.8763404">
        <ele>15.999</ele>
        <time>2011-01-17T20:41:00Z</time>
      </trkpt>
      <trkpt lat="59.5358552" lon="17.8763498">
        <ele>14.557</ele>
        <time>2011-01-17T20:41:03Z</time>
      </trkpt>
      <trkpt lat="59.5357268" lon="17.8763991">
        <ele>12.6344</ele>
        <time>2011-01-17T20:41:09Z</time>
      </trkpt>
      <trkpt lat="59.5356015" lon="17.876454">
        <ele>11.6732</ele>
        <time>2011-01-17T20:41:14Z</time>
      </trkpt>
      <trkpt lat="59.5355216" lon="17.8764633">
        <ele>10.2312</ele>
        <time>2011-01-17T20:41:19Z</time>
      </trkpt>
      <trkpt lat="59.5354154" lon="17.8763685">
        <ele>9.2699</ele>
        <time>2011-01-17T20:41:26Z</time>
      </trkpt>
      <trkpt lat="59.5354014" lon="17.8763498">
        <ele>8.78918</ele>
        <time>2011-01-17T20:41:27Z</time>
      </trkpt>
      <trkpt lat="59.5353248" lon="17.8763414">
        <ele>7.82788</ele>
        <time>2011-01-17T20:41:31Z</time>
      </trkpt>
      <trkpt lat="59.5352562" lon="17.8763048">
        <ele>7.82788</ele>
        <time>2011-01-17T20:41:35Z</time>
      </trkpt>
      <trkpt lat="59.5351458" lon="17.8763411">
        <ele>7.82788</ele>
        <time>2011-01-17T20:41:40Z</time>
      </trkpt>
      <trkpt lat="59.5350223" lon="17.8764093">
        <ele>8.30859</ele>
        <time>2011-01-17T20:41:45Z</time>
      </trkpt>
      <trkpt lat="59.5348866" lon="17.8765327">
        <ele>9.2699</ele>
        <time>2011-01-17T20:41:51Z</time>
      </trkpt>
      <trkpt lat="59.5347815" lon="17.8766005">
        <ele>7.34717</ele>
        <time>2011-01-17T20:41:56Z</time>
      </trkpt>
      <trkpt lat="59.5347545" lon="17.8766205">
        <ele>7.82788</ele>
        <time>2011-01-17T20:41:57Z</time>
      </trkpt>
      <trkpt lat="59.5346472" lon="17.8766942">
        <ele>8.78918</ele>
        <time>2011-01-17T20:42:02Z</time>
      </trkpt>
      <trkpt lat="59.5344736" lon="17.8768987">
        <ele>6.86646</ele>
        <time>2011-01-17T20:42:08Z</time>
      </trkpt>
      <trkpt lat="59.5342742" lon="17.8770044">
        <ele>4.94385</ele>
        <time>2011-01-17T20:42:13Z</time>
      </trkpt>
      <trkpt lat="59.5342012" lon="17.877005">
        <ele>3.50195</ele>
        <time>2011-01-17T20:42:15Z</time>
      </trkpt>
      <trkpt lat="59.5340634" lon="17.8769875">
        <ele>2.06006</ele>
        <time>2011-01-17T20:42:20Z</time>
      </trkpt>
      <trkpt lat="59.5339774" lon="17.8770184">
        <ele>1.57935</ele>
        <time>2011-01-17T20:42:24Z</time>
      </trkpt>
      <trkpt lat="59.5338938" lon="17.8770643">
        <ele>3.50195</ele>
        <time>2011-01-17T20:42:29Z</time>
      </trkpt>
      <trkpt lat="59.5338689" lon="17.8770889">
        <ele>4.94385</ele>
        <time>2011-01-17T20:42:31Z</time>
      </trkpt>
      <trkpt lat="59.533749" lon="17.8772439">
        <ele>7.82788</ele>
        <time>2011-01-17T20:42:37Z</time>
      </trkpt>
      <trkpt lat="59.5337277" lon="17.8772854">
        <ele>7.82788</ele>
        <time>2011-01-17T20:42:38Z</time>
      </trkpt>
      <trkpt lat="59.5336029" lon="17.8774485">
        <ele>7.34717</ele>
        <time>2011-01-17T20:42:44Z</time>
      </trkpt>
      <trkpt lat="59.5334957" lon="17.8775868">
        <ele>7.34717</ele>
        <time>2011-01-17T20:42:50Z</time>
      </trkpt>
      <trkpt lat="59.5334039" lon="17.8777728">
        <ele>12.6344</ele>
        <time>2011-01-17T20:42:55Z</time>
      </trkpt>
      <trkpt lat="59.5333588" lon="17.8778941">
        <ele>15.5184</ele>
        <time>2011-01-17T20:42:59Z</time>
      </trkpt>
      <trkpt lat="59.5333408" lon="17.8779562">
        <ele>17.4412</ele>
        <time>2011-01-17T20:43:01Z</time>
      </trkpt>
      <trkpt lat="59.5333019" lon="17.8781566">
        <ele>21.767</ele>
        <time>2011-01-17T20:43:06Z</time>
      </trkpt>
      <trkpt lat="59.5332071" lon="17.8784399">
        <ele>21.767</ele>
        <time>2011-01-17T20:43:11Z</time>
      </trkpt>
      <trkpt lat="59.533108" lon="17.878631">
        <ele>22.7283</ele>
        <time>2011-01-17T20:43:15Z</time>
      </trkpt>
      <trkpt lat="59.5330559" lon="17.8787833">
        <ele>22.2476</ele>
        <time>2011-01-17T20:43:18Z</time>
      </trkpt>
      <trkpt lat="59.5330225" lon="17.8791179">
        <ele>26.5736</ele>
        <time>2011-01-17T20:43:24Z</time>
      </trkpt>
      <trkpt lat="59.532989" lon="17.8793188">
        <ele>26.5736</ele>
        <time>2011-01-17T20:43:29Z</time>
      </trkpt>
      <trkpt lat="59.53296" lon="17.8795481">
        <ele>26.5736</ele>
        <time>2011-01-17T20:43:34Z</time>
      </trkpt>
      <trkpt lat="59.5329068" lon="17.8797359">
        <ele>25.6123</ele>
        <time>2011-01-17T20:43:38Z</time>
      </trkpt>
      <trkpt lat="59.5328876" lon="17.879803">
        <ele>25.6123</ele>
        <time>2011-01-17T20:43:40Z</time>
      </trkpt>
      <trkpt lat="59.5327847" lon="17.880037">
        <ele>24.651</ele>
        <time>2011-01-17T20:43:47Z</time>
      </trkpt>
      <trkpt lat="59.5327415" lon="17.8801789">
        <ele>26.5736</ele>
        <time>2011-01-17T20:43:50Z</time>
      </trkpt>
      <trkpt lat="59.5326861" lon="17.8803226">
        <ele>27.5349</ele>
        <time>2011-01-17T20:43:53Z</time>
      </trkpt>
      <trkpt lat="59.5325711" lon="17.8805348">
        <ele>26.5736</ele>
        <time>2011-01-17T20:43:58Z</time>
      </trkpt>
      <trkpt lat="59.5324721" lon="17.8807167">
        <ele>24.1703</ele>
        <time>2011-01-17T20:44:04Z</time>
      </trkpt>
      <trkpt lat="59.532441" lon="17.8808088">
        <ele>24.1703</ele>
        <time>2011-01-17T20:44:06Z</time>
      </trkpt>
      <trkpt lat="59.5323559" lon="17.8811321">
        <ele>19.8444</ele>
        <time>2011-01-17T20:44:12Z</time>
      </trkpt>
      <trkpt lat="59.5322969" lon="17.8812699">
        <ele>15.0377</ele>
        <time>2011-01-17T20:44:15Z</time>
      </trkpt>
      <trkpt lat="59.5322158" lon="17.8814319">
        <ele>10.2312</ele>
        <time>2011-01-17T20:44:20Z</time>
      </trkpt>
      <trkpt lat="59.5321966" lon="17.8814806">
        <ele>11.1925</ele>
        <time>2011-01-17T20:44:21Z</time>
      </trkpt>
      <trkpt lat="59.5321343" lon="17.8816564">
        <ele>9.75061</ele>
        <time>2011-01-17T20:44:25Z</time>
      </trkpt>
      <trkpt lat="59.5320233" lon="17.8819314">
        <ele>10.7118</ele>
        <time>2011-01-17T20:44:29Z</time>
      </trkpt>
      <trkpt lat="59.5319322" lon="17.882186">
        <ele>12.1538</ele>
        <time>2011-01-17T20:44:32Z</time>
      </trkpt>
      <trkpt lat="59.5318047" lon="17.8826167">
        <ele>13.1151</ele>
        <time>2011-01-17T20:44:38Z</time>
      </trkpt>
      <trkpt lat="59.5317687" lon="17.8827322">
        <ele>13.1151</ele>
        <time>2011-01-17T20:44:40Z</time>
      </trkpt>
      <trkpt lat="59.5316816" lon="17.8829969">
        <ele>14.557</ele>
        <time>2011-01-17T20:44:45Z</time>
      </trkpt>
      <trkpt lat="59.531595" lon="17.8831943">
        <ele>16.9604</ele>
        <time>2011-01-17T20:44:49Z</time>
      </trkpt>
      <trkpt lat="59.5314986" lon="17.883385">
        <ele>20.325</ele>
        <time>2011-01-17T20:44:54Z</time>
      </trkpt>
      <trkpt lat="59.5314024" lon="17.8835612">
        <ele>22.7283</ele>
        <time>2011-01-17T20:45:00Z</time>
      </trkpt>
      <trkpt lat="59.5313578" lon="17.8836279">
        <ele>24.1703</ele>
        <time>2011-01-17T20:45:03Z</time>
      </trkpt>
      <trkpt lat="59.5312372" lon="17.8837584">
        <ele>21.767</ele>
        <time>2011-01-17T20:45:09Z</time>
      </trkpt>
      <trkpt lat="59.531139" lon="17.8837822">
        <ele>20.8057</ele>
        <time>2011-01-17T20:45:14Z</time>
      </trkpt>
      <trkpt lat="59.531105" lon="17.8837967">
        <ele>20.325</ele>
        <time>2011-01-17T20:45:16Z</time>
      </trkpt>
      <trkpt lat="59.5310527" lon="17.8837911">
        <ele>19.8444</ele>
        <time>2011-01-17T20:45:19Z</time>
      </trkpt>
      <trkpt lat="59.530989" lon="17.8837619">
        <ele>20.325</ele>
        <time>2011-01-17T20:45:23Z</time>
      </trkpt>
      <trkpt lat="59.5309072" lon="17.883649">
        <ele>21.767</ele>
        <time>2011-01-17T20:45:28Z</time>
      </trkpt>
      <trkpt lat="59.5308516" lon="17.8835076">
        <ele>21.2864</ele>
        <time>2011-01-17T20:45:33Z</time>
      </trkpt>
      <trkpt lat="59.5308031" lon="17.8833897">
        <ele>20.325</ele>
        <time>2011-01-17T20:45:37Z</time>
      </trkpt>
      <trkpt lat="59.53076" lon="17.8832549">
        <ele>19.8444</ele>
        <time>2011-01-17T20:45:41Z</time>
      </trkpt>
      <trkpt lat="59.5307061" lon="17.8831114">
        <ele>18.4023</ele>
        <time>2011-01-17T20:45:45Z</time>
      </trkpt>
      <trkpt lat="59.5306284" lon="17.8830093">
        <ele>18.4023</ele>
        <time>2011-01-17T20:45:51Z</time>
      </trkpt>
      <trkpt lat="59.5305673" lon="17.8829301">
        <ele>18.4023</ele>
        <time>2011-01-17T20:45:55Z</time>
      </trkpt>
      <trkpt lat="59.5305342" lon="17.882903">
        <ele>18.4023</ele>
        <time>2011-01-17T20:45:57Z</time>
      </trkpt>
      <trkpt lat="59.5304378" lon="17.8828228">
        <ele>21.2864</ele>
        <time>2011-01-17T20:46:03Z</time>
      </trkpt>
      <trkpt lat="59.5303803" lon="17.8828082">
        <ele>22.2476</ele>
        <time>2011-01-17T20:46:06Z</time>
      </trkpt>
      <trkpt lat="59.5302763" lon="17.8827685">
        <ele>25.1317</ele>
        <time>2011-01-17T20:46:11Z</time>
      </trkpt>
      <trkpt lat="59.5301623" lon="17.8827296">
        <ele>27.0543</ele>
        <time>2011-01-17T20:46:18Z</time>
      </trkpt>
      <trkpt lat="59.5300856" lon="17.8826802">
        <ele>26.5736</ele>
        <time>2011-01-17T20:46:23Z</time>
      </trkpt>
      <trkpt lat="59.529983" lon="17.8825229">
        <ele>25.6123</ele>
        <time>2011-01-17T20:46:30Z</time>
      </trkpt>
      <trkpt lat="59.5299103" lon="17.8823484">
        <ele>24.651</ele>
        <time>2011-01-17T20:46:35Z</time>
      </trkpt>
      <trkpt lat="59.5298452" lon="17.8822887">
        <ele>28.4962</ele>
        <time>2011-01-17T20:46:38Z</time>
      </trkpt>
      <trkpt lat="59.5297884" lon="17.8822312">
        <ele>28.4962</ele>
        <time>2011-01-17T20:46:41Z</time>
      </trkpt>
      <trkpt lat="59.5296996" lon="17.8821681">
        <ele>26.5736</ele>
        <time>2011-01-17T20:46:45Z</time>
      </trkpt>
      <trkpt lat="59.5296489" lon="17.882151">
        <ele>24.651</ele>
        <time>2011-01-17T20:46:47Z</time>
      </trkpt>
      <trkpt lat="59.5295184" lon="17.8819817">
        <ele>21.2864</ele>
        <time>2011-01-17T20:46:52Z</time>
      </trkpt>
      <trkpt lat="59.5293231" lon="17.8818374">
        <ele>19.8444</ele>
        <time>2011-01-17T20:46:57Z</time>
      </trkpt>
      <trkpt lat="59.5292935" lon="17.8818237">
        <ele>19.8444</ele>
        <time>2011-01-17T20:46:58Z</time>
      </trkpt>
      <trkpt lat="59.5291504" lon="17.8817142">
        <ele>19.3638</ele>
        <time>2011-01-17T20:47:04Z</time>
      </trkpt>
      <trkpt lat="59.5290061" lon="17.8816096">
        <ele>23.209</ele>
        <time>2011-01-17T20:47:09Z</time>
      </trkpt>
      <trkpt lat="59.5288713" lon="17.8815606">
        <ele>24.651</ele>
        <time>2011-01-17T20:47:13Z</time>
      </trkpt>
      <trkpt lat="59.5287803" lon="17.8815191">
        <ele>26.0929</ele>
        <time>2011-01-17T20:47:17Z</time>
      </trkpt>
      <trkpt lat="59.5286622" lon="17.8814683">
        <ele>26.0929</ele>
        <time>2011-01-17T20:47:21Z</time>
      </trkpt>
      <trkpt lat="59.5284222" lon="17.8814266">
        <ele>24.1703</ele>
        <time>2011-01-17T20:47:26Z</time>
      </trkpt>
      <trkpt lat="59.5282876" lon="17.8814085">
        <ele>22.7283</ele>
        <time>2011-01-17T20:47:30Z</time>
      </trkpt>
      <trkpt lat="59.528126" lon="17.8813746">
        <ele>20.8057</ele>
        <time>2011-01-17T20:47:36Z</time>
      </trkpt>
      <trkpt lat="59.5281032" lon="17.8813874">
        <ele>20.325</ele>
        <time>2011-01-17T20:47:37Z</time>
      </trkpt>
      <trkpt lat="59.5279493" lon="17.8814129">
        <ele>18.4023</ele>
        <time>2011-01-17T20:47:43Z</time>
      </trkpt>
      <trkpt lat="59.5279253" lon="17.8814135">
        <ele>18.4023</ele>
        <time>2011-01-17T20:47:44Z</time>
      </trkpt>
      <trkpt lat="59.527885" lon="17.8814056">
        <ele>17.9218</ele>
        <time>2011-01-17T20:47:46Z</time>
      </trkpt>
      <trkpt lat="59.5278517" lon="17.8814335">
        <ele>18.4023</ele>
        <time>2011-01-17T20:47:48Z</time>
      </trkpt>
      <trkpt lat="59.5277244" lon="17.8815946">
        <ele>17.9218</ele>
        <time>2011-01-17T20:47:54Z</time>
      </trkpt>
      <trkpt lat="59.5276772" lon="17.8816594">
        <ele>17.9218</ele>
        <time>2011-01-17T20:47:56Z</time>
      </trkpt>
      <trkpt lat="59.5275349" lon="17.8818115">
        <ele>18.4023</ele>
        <time>2011-01-17T20:48:02Z</time>
      </trkpt>
      <trkpt lat="59.5274145" lon="17.8819926">
        <ele>18.8831</ele>
        <time>2011-01-17T20:48:06Z</time>
      </trkpt>
      <trkpt lat="59.527285" lon="17.8820749">
        <ele>19.8444</ele>
        <time>2011-01-17T20:48:10Z</time>
      </trkpt>
      <trkpt lat="59.5272586" lon="17.8820738">
        <ele>20.325</ele>
        <time>2011-01-17T20:48:11Z</time>
      </trkpt>
      <trkpt lat="59.5270879" lon="17.8819503">
        <ele>20.8057</ele>
        <time>2011-01-17T20:48:17Z</time>
      </trkpt>
      <trkpt lat="59.5269911" lon="17.8816375">
        <ele>19.8444</ele>
        <time>2011-01-17T20:48:22Z</time>
      </trkpt>
      <trkpt lat="59.5269188" lon="17.8812515">
        <ele>19.3638</ele>
        <time>2011-01-17T20:48:27Z</time>
      </trkpt>
      <trkpt lat="59.5269066" lon="17.8812186">
        <ele>20.325</ele>
        <time>2011-01-17T20:48:28Z</time>
      </trkpt>
      <trkpt lat="59.5268895" lon="17.881202">
        <ele>20.8057</ele>
        <time>2011-01-17T20:48:30Z</time>
      </trkpt>
      <trkpt lat="59.5268173" lon="17.8811378">
        <ele>21.2864</ele>
        <time>2011-01-17T20:48:35Z</time>
      </trkpt>
      <trkpt lat="59.5267627" lon="17.8810678">
        <ele>22.2476</ele>
        <time>2011-01-17T20:48:42Z</time>
      </trkpt>
      <trkpt lat="59.526738" lon="17.8810233">
        <ele>21.2864</ele>
        <time>2011-01-17T20:48:44Z</time>
      </trkpt>
      <trkpt lat="59.526687" lon="17.8808983">
        <ele>19.8444</ele>
        <time>2011-01-17T20:48:49Z</time>
      </trkpt>
      <trkpt lat="59.5265921" lon="17.8808463">
        <ele>19.3638</ele>
        <time>2011-01-17T20:48:53Z</time>
      </trkpt>
      <trkpt lat="59.5264681" lon="17.8808217">
        <ele>18.8831</ele>
        <time>2011-01-17T20:48:58Z</time>
      </trkpt>
      <trkpt lat="59.5264412" lon="17.8808213">
        <ele>19.3638</ele>
        <time>2011-01-17T20:48:59Z</time>
      </trkpt>
      <trkpt lat="59.5263272" lon="17.8808255">
        <ele>20.8057</ele>
        <time>2011-01-17T20:49:04Z</time>
      </trkpt>
      <trkpt lat="59.5261694" lon="17.8808715">
        <ele>18.8831</ele>
        <time>2011-01-17T20:49:08Z</time>
      </trkpt>
      <trkpt lat="59.5259691" lon="17.8808206">
        <ele>16.9604</ele>
        <time>2011-01-17T20:49:12Z</time>
      </trkpt>
      <trkpt lat="59.5259281" lon="17.8807838">
        <ele>16.9604</ele>
        <time>2011-01-17T20:49:13Z</time>
      </trkpt>
      <trkpt lat="59.5258494" lon="17.880755">
        <ele>17.4412</ele>
        <time>2011-01-17T20:49:15Z</time>
      </trkpt>
      <trkpt lat="59.5257808" lon="17.8807364">
        <ele>17.4412</ele>
        <time>2011-01-17T20:49:17Z</time>
      </trkpt>
      <trkpt lat="59.5256416" lon="17.8806701">
        <ele>20.325</ele>
        <time>2011-01-17T20:49:22Z</time>
      </trkpt>
      <trkpt lat="59.5255264" lon="17.880603">
        <ele>23.209</ele>
        <time>2011-01-17T20:49:27Z</time>
      </trkpt>
      <trkpt lat="59.5254335" lon="17.880584">
        <ele>24.1703</ele>
        <time>2011-01-17T20:49:31Z</time>
      </trkpt>
      <trkpt lat="59.5253399" lon="17.8805023">
        <ele>23.209</ele>
        <time>2011-01-17T20:49:36Z</time>
      </trkpt>
      <trkpt lat="59.5253798" lon="17.8804213">
        <ele>25.1317</ele>
        <time>2011-01-17T20:49:40Z</time>
      </trkpt>
      <trkpt lat="59.5253981" lon="17.880403">
        <ele>26.0929</ele>
        <time>2011-01-17T20:49:41Z</time>
      </trkpt>
      <trkpt lat="59.5254665" lon="17.8802867">
        <ele>29.9381</ele>
        <time>2011-01-17T20:49:46Z</time>
      </trkpt>
      <trkpt lat="59.5255365" lon="17.8801242">
        <ele>32.8223</ele>
        <time>2011-01-17T20:49:51Z</time>
      </trkpt>
      <trkpt lat="59.5255422" lon="17.8800821">
        <ele>32.8223</ele>
        <time>2011-01-17T20:49:52Z</time>
      </trkpt>
      <trkpt lat="59.5255871" lon="17.8799105">
        <ele>34.2642</ele>
        <time>2011-01-17T20:49:56Z</time>
      </trkpt>
      <trkpt lat="59.525626" lon="17.8797231">
        <ele>35.7061</ele>
        <time>2011-01-17T20:50:00Z</time>
      </trkpt>
      <trkpt lat="59.5256547" lon="17.8795779">
        <ele>37.6287</ele>
        <time>2011-01-17T20:50:03Z</time>
      </trkpt>
      <trkpt lat="59.5256261" lon="17.8792433">
        <ele>37.6287</ele>
        <time>2011-01-17T20:50:09Z</time>
      </trkpt>
      <trkpt lat="59.5255626" lon="17.879058">
        <ele>35.7061</ele>
        <time>2011-01-17T20:50:13Z</time>
      </trkpt>
      <trkpt lat="59.5254673" lon="17.8789156">
        <ele>34.2642</ele>
        <time>2011-01-17T20:50:17Z</time>
      </trkpt>
      <trkpt lat="59.5253975" lon="17.8788238">
        <ele>32.3416</ele>
        <time>2011-01-17T20:50:20Z</time>
      </trkpt>
      <trkpt lat="59.5253374" lon="17.8787185">
        <ele>31.3801</ele>
        <time>2011-01-17T20:50:23Z</time>
      </trkpt>
      <trkpt lat="59.5252038" lon="17.8783992">
        <ele>28.0155</ele>
        <time>2011-01-17T20:50:28Z</time>
      </trkpt>
      <trkpt lat="59.525136" lon="17.8780945">
        <ele>25.6123</ele>
        <time>2011-01-17T20:50:31Z</time>
      </trkpt>
      <trkpt lat="59.5250764" lon="17.8779142">
        <ele>24.651</ele>
        <time>2011-01-17T20:50:33Z</time>
      </trkpt>
      <trkpt lat="59.5249661" lon="17.8777138">
        <ele>21.2864</ele>
        <time>2011-01-17T20:50:37Z</time>
      </trkpt>
      <trkpt lat="59.5248494" lon="17.8775366">
        <ele>17.9218</ele>
        <time>2011-01-17T20:50:42Z</time>
      </trkpt>
      <trkpt lat="59.5248348" lon="17.877502">
        <ele>17.9218</ele>
        <time>2011-01-17T20:50:43Z</time>
      </trkpt>
      <trkpt lat="59.5247894" lon="17.8771126">
        <ele>14.557</ele>
        <time>2011-01-17T20:50:48Z</time>
      </trkpt>
      <trkpt lat="59.5246836" lon="17.8766923">
        <ele>15.0377</ele>
        <time>2011-01-17T20:50:52Z</time>
      </trkpt>
      <trkpt lat="59.5246639" lon="17.8766025">
        <ele>15.0377</ele>
        <time>2011-01-17T20:50:53Z</time>
      </trkpt>
      <trkpt lat="59.5245854" lon="17.876201">
        <ele>13.5958</ele>
        <time>2011-01-17T20:50:58Z</time>
      </trkpt>
      <trkpt lat="59.5245828" lon="17.8760235">
        <ele>14.0764</ele>
        <time>2011-01-17T20:51:00Z</time>
      </trkpt>
      <trkpt lat="59.5245435" lon="17.8756293">
        <ele>13.5958</ele>
        <time>2011-01-17T20:51:04Z</time>
      </trkpt>
      <trkpt lat="59.5243829" lon="17.8750283">
        <ele>7.34717</ele>
        <time>2011-01-17T20:51:10Z</time>
      </trkpt>
      <trkpt lat="59.5242773" lon="17.8747676">
        <ele>4.46326</ele>
        <time>2011-01-17T20:51:13Z</time>
      </trkpt>
      <trkpt lat="59.5241418" lon="17.8745533">
        <ele>7.34717</ele>
        <time>2011-01-17T20:51:17Z</time>
      </trkpt>
      <trkpt lat="59.5239881" lon="17.8744229">
        <ele>10.2312</ele>
        <time>2011-01-17T20:51:21Z</time>
      </trkpt>
      <trkpt lat="59.5239224" lon="17.8743563">
        <ele>10.2312</ele>
        <time>2011-01-17T20:51:23Z</time>
      </trkpt>
      <trkpt lat="59.523862" lon="17.8742654">
        <ele>10.2312</ele>
        <time>2011-01-17T20:51:25Z</time>
      </trkpt>
      <trkpt lat="59.5237357" lon="17.873877">
        <ele>16.4797</ele>
        <time>2011-01-17T20:51:30Z</time>
      </trkpt>
      <trkpt lat="59.5237099" lon="17.8738108">
        <ele>16.4797</ele>
        <time>2011-01-17T20:51:31Z</time>
      </trkpt>
      <trkpt lat="59.5236206" lon="17.8736984">
        <ele>17.4412</ele>
        <time>2011-01-17T20:51:34Z</time>
      </trkpt>
      <trkpt lat="59.5234541" lon="17.8734965">
        <ele>20.325</ele>
        <time>2011-01-17T20:51:40Z</time>
      </trkpt>
      <trkpt lat="59.5233307" lon="17.873324">
        <ele>19.3638</ele>
        <time>2011-01-17T20:51:44Z</time>
      </trkpt>
      <trkpt lat="59.523185" lon="17.8731136">
        <ele>22.2476</ele>
        <time>2011-01-17T20:51:49Z</time>
      </trkpt>
      <trkpt lat="59.5231059" lon="17.8729513">
        <ele>22.2476</ele>
        <time>2011-01-17T20:51:53Z</time>
      </trkpt>
      <trkpt lat="59.5229975" lon="17.8727924">
        <ele>23.6896</ele>
        <time>2011-01-17T20:51:58Z</time>
      </trkpt>
      <trkpt lat="59.5229135" lon="17.8727186">
        <ele>21.767</ele>
        <time>2011-01-17T20:52:02Z</time>
      </trkpt>
      <trkpt lat="59.5227967" lon="17.8726601">
        <ele>21.2864</ele>
        <time>2011-01-17T20:52:07Z</time>
      </trkpt>
      <trkpt lat="59.5227308" lon="17.8726">
        <ele>19.8444</ele>
        <time>2011-01-17T20:52:10Z</time>
      </trkpt>
      <trkpt lat="59.5225983" lon="17.8724987">
        <ele>13.5958</ele>
        <time>2011-01-17T20:52:15Z</time>
      </trkpt>
      <trkpt lat="59.5224562" lon="17.8724775">
        <ele>8.78918</ele>
        <time>2011-01-17T20:52:20Z</time>
      </trkpt>
      <trkpt lat="59.5223729" lon="17.8724972">
        <ele>7.34717</ele>
        <time>2011-01-17T20:52:23Z</time>
      </trkpt>
      <trkpt lat="59.5222269" lon="17.8725552">
        <ele>3.02124</ele>
        <time>2011-01-17T20:52:29Z</time>
      </trkpt>
      <trkpt lat="59.5222061" lon="17.8725714">
        <ele>3.02124</ele>
        <time>2011-01-17T20:52:30Z</time>
      </trkpt>
      <trkpt lat="59.5220816" lon="17.872669">
        <ele>0.137451</ele>
        <time>2011-01-17T20:52:36Z</time>
      </trkpt>
      <trkpt lat="59.5219905" lon="17.8727004">
        <ele>0</ele>
        <time>2011-01-17T20:52:40Z</time>
      </trkpt>
      <trkpt lat="59.5218963" lon="17.872747">
        <ele>0</ele>
        <time>2011-01-17T20:52:44Z</time>
      </trkpt>
      <trkpt lat="59.5218161" lon="17.8727683">
        <ele>0</ele>
        <time>2011-01-17T20:52:47Z</time>
      </trkpt>
      <trkpt lat="59.5216202" lon="17.8728284">
        <ele>1.57935</ele>
        <time>2011-01-17T20:52:54Z</time>
      </trkpt>
      <trkpt lat="59.5214606" lon="17.8728755">
        <ele>7.82788</ele>
        <time>2011-01-17T20:52:58Z</time>
      </trkpt>
      <trkpt lat="59.5214192" lon="17.8728943">
        <ele>7.82788</ele>
        <time>2011-01-17T20:52:59Z</time>
      </trkpt>
      <trkpt lat="59.5212845" lon="17.8727417">
        <ele>6.86646</ele>
        <time>2011-01-17T20:53:05Z</time>
      </trkpt>
      <trkpt lat="59.5211634" lon="17.8725943">
        <ele>7.82788</ele>
        <time>2011-01-17T20:53:11Z</time>
      </trkpt>
      <trkpt lat="59.5211368" lon="17.872574">
        <ele>7.34717</ele>
        <time>2011-01-17T20:53:12Z</time>
      </trkpt>
      <trkpt lat="59.5210049" lon="17.8725241">
        <ele>7.34717</ele>
        <time>2011-01-17T20:53:18Z</time>
      </trkpt>
      <trkpt lat="59.5208907" lon="17.8724979">
        <ele>6.86646</ele>
        <time>2011-01-17T20:53:22Z</time>
      </trkpt>
      <trkpt lat="59.5207385" lon="17.8725177">
        <ele>7.34717</ele>
        <time>2011-01-17T20:53:27Z</time>
      </trkpt>
      <trkpt lat="59.5206222" lon="17.8725979">
        <ele>7.82788</ele>
        <time>2011-01-17T20:53:32Z</time>
      </trkpt>
      <trkpt lat="59.5204839" lon="17.8727014">
        <ele>8.30859</ele>
        <time>2011-01-17T20:53:36Z</time>
      </trkpt>
      <trkpt lat="59.5203542" lon="17.8728242">
        <ele>8.30859</ele>
        <time>2011-01-17T20:53:40Z</time>
      </trkpt>
      <trkpt lat="59.520234" lon="17.8729828">
        <ele>11.1925</ele>
        <time>2011-01-17T20:53:45Z</time>
      </trkpt>
      <trkpt lat="59.5201321" lon="17.8731001">
        <ele>11.6732</ele>
        <time>2011-01-17T20:53:50Z</time>
      </trkpt>
      <trkpt lat="59.5200182" lon="17.8732023">
        <ele>12.1538</ele>
        <time>2011-01-17T20:53:54Z</time>
      </trkpt>
      <trkpt lat="59.5198715" lon="17.8733608">
        <ele>11.1925</ele>
        <time>2011-01-17T20:53:58Z</time>
      </trkpt>
      <trkpt lat="59.5197379" lon="17.8735717">
        <ele>10.2312</ele>
        <time>2011-01-17T20:54:02Z</time>
      </trkpt>
      <trkpt lat="59.5196467" lon="17.8737484">
        <ele>10.7118</ele>
        <time>2011-01-17T20:54:06Z</time>
      </trkpt>
      <trkpt lat="59.5196323" lon="17.8737738">
        <ele>10.2312</ele>
        <time>2011-01-17T20:54:07Z</time>
      </trkpt>
      <trkpt lat="59.519559" lon="17.8739412">
        <ele>11.6732</ele>
        <time>2011-01-17T20:54:12Z</time>
      </trkpt>
      <trkpt lat="59.5194724" lon="17.8741111">
        <ele>13.5958</ele>
        <time>2011-01-17T20:54:18Z</time>
      </trkpt>
      <trkpt lat="59.51938" lon="17.8743436">
        <ele>15.999</ele>
        <time>2011-01-17T20:54:25Z</time>
      </trkpt>
      <trkpt lat="59.5193203" lon="17.874525">
        <ele>18.8831</ele>
        <time>2011-01-17T20:54:30Z</time>
      </trkpt>
      <trkpt lat="59.5192877" lon="17.8746223">
        <ele>19.8444</ele>
        <time>2011-01-17T20:54:33Z</time>
      </trkpt>
      <trkpt lat="59.5192352" lon="17.8748386">
        <ele>20.325</ele>
        <time>2011-01-17T20:54:39Z</time>
      </trkpt>
      <trkpt lat="59.5191629" lon="17.8749869">
        <ele>20.8057</ele>
        <time>2011-01-17T20:54:43Z</time>
      </trkpt>
      <trkpt lat="59.5189291" lon="17.8751732">
        <ele>19.8444</ele>
        <time>2011-01-17T20:54:49Z</time>
      </trkpt>
      <trkpt lat="59.5187891" lon="17.8753763">
        <ele>18.8831</ele>
        <time>2011-01-17T20:54:53Z</time>
      </trkpt>
      <trkpt lat="59.5186747" lon="17.8756594">
        <ele>20.325</ele>
        <time>2011-01-17T20:54:58Z</time>
      </trkpt>
      <trkpt lat="59.5185819" lon="17.8758511">
        <ele>20.325</ele>
        <time>2011-01-17T20:55:01Z</time>
      </trkpt>
      <trkpt lat="59.5184672" lon="17.8761566">
        <ele>19.8444</ele>
        <time>2011-01-17T20:55:05Z</time>
      </trkpt>
      <trkpt lat="59.5183865" lon="17.8764338">
        <ele>18.8831</ele>
        <time>2011-01-17T20:55:09Z</time>
      </trkpt>
      <trkpt lat="59.518435" lon="17.8767799">
        <ele>20.8057</ele>
        <time>2011-01-17T20:55:16Z</time>
      </trkpt>
      <trkpt lat="59.5184737" lon="17.8768926">
        <ele>19.8444</ele>
        <time>2011-01-17T20:55:18Z</time>
      </trkpt>
      <trkpt lat="59.5185738" lon="17.8772093">
        <ele>20.8057</ele>
        <time>2011-01-17T20:55:23Z</time>
      </trkpt>
      <trkpt lat="59.518636" lon="17.8773781">
        <ele>21.767</ele>
        <time>2011-01-17T20:55:26Z</time>
      </trkpt>
      <trkpt lat="59.5186893" lon="17.8775771">
        <ele>23.209</ele>
        <time>2011-01-17T20:55:30Z</time>
      </trkpt>
      <trkpt lat="59.5187604" lon="17.8778194">
        <ele>25.6123</ele>
        <time>2011-01-17T20:55:36Z</time>
      </trkpt>
      <trkpt lat="59.5187723" lon="17.8778614">
        <ele>26.5736</ele>
        <time>2011-01-17T20:55:37Z</time>
      </trkpt>
      <trkpt lat="59.5188469" lon="17.8780469">
        <ele>31.3801</ele>
        <time>2011-01-17T20:55:42Z</time>
      </trkpt>
      <trkpt lat="59.5189186" lon="17.8782369">
        <ele>33.7834</ele>
        <time>2011-01-17T20:55:47Z</time>
      </trkpt>
      <trkpt lat="59.5189857" lon="17.8783605">
        <ele>34.7449</ele>
        <time>2011-01-17T20:55:50Z</time>
      </trkpt>
      <trkpt lat="59.5190875" lon="17.8785947">
        <ele>32.8223</ele>
        <time>2011-01-17T20:55:56Z</time>
      </trkpt>
      <trkpt lat="59.5191961" lon="17.878777">
        <ele>31.3801</ele>
        <time>2011-01-17T20:56:00Z</time>
      </trkpt>
      <trkpt lat="59.5192914" lon="17.8790041">
        <ele>29.9381</ele>
        <time>2011-01-17T20:56:04Z</time>
      </trkpt>
      <trkpt lat="59.5194092" lon="17.8791595">
        <ele>30.4188</ele>
        <time>2011-01-17T20:56:09Z</time>
      </trkpt>
      <trkpt lat="59.5194316" lon="17.8791702">
        <ele>31.3801</ele>
        <time>2011-01-17T20:56:10Z</time>
      </trkpt>
      <trkpt lat="59.5195384" lon="17.8792026">
        <ele>33.3029</ele>
        <time>2011-01-17T20:56:14Z</time>
      </trkpt>
      <trkpt lat="59.5196922" lon="17.8793062">
        <ele>33.7834</ele>
        <time>2011-01-17T20:56:21Z</time>
      </trkpt>
      <trkpt lat="59.5198144" lon="17.8793563">
        <ele>31.3801</ele>
        <time>2011-01-17T20:56:26Z</time>
      </trkpt>
      <trkpt lat="59.5198906" lon="17.8793878">
        <ele>30.8995</ele>
        <time>2011-01-17T20:56:31Z</time>
      </trkpt>
      <trkpt lat="59.5199254" lon="17.8793774">
        <ele>31.3801</ele>
        <time>2011-01-17T20:56:33Z</time>
      </trkpt>
      <trkpt lat="59.5200275" lon="17.8793249">
        <ele>33.3029</ele>
        <time>2011-01-17T20:56:39Z</time>
      </trkpt>
      <trkpt lat="59.5200474" lon="17.8793223">
        <ele>34.2642</ele>
        <time>2011-01-17T20:56:40Z</time>
      </trkpt>
      <trkpt lat="59.5201635" lon="17.8791984">
        <ele>33.7834</ele>
        <time>2011-01-17T20:56:47Z</time>
      </trkpt>
      <trkpt lat="59.520238" lon="17.879144">
        <ele>33.3029</ele>
        <time>2011-01-17T20:56:51Z</time>
      </trkpt>
      <trkpt lat="59.5202688" lon="17.8791228">
        <ele>33.7834</ele>
        <time>2011-01-17T20:56:53Z</time>
      </trkpt>
      <trkpt lat="59.5203074" lon="17.8790921">
        <ele>33.7834</ele>
        <time>2011-01-17T20:56:55Z</time>
      </trkpt>
      <trkpt lat="59.520406" lon="17.8790497">
        <ele>32.8223</ele>
        <time>2011-01-17T20:57:01Z</time>
      </trkpt>
      <trkpt lat="59.5204439" lon="17.8790578">
        <ele>32.3416</ele>
        <time>2011-01-17T20:57:03Z</time>
      </trkpt>
      <trkpt lat="59.520552" lon="17.8790949">
        <ele>34.2642</ele>
        <time>2011-01-17T20:57:08Z</time>
      </trkpt>
      <trkpt lat="59.5206589" lon="17.8792015">
        <ele>34.7449</ele>
        <time>2011-01-17T20:57:14Z</time>
      </trkpt>
      <trkpt lat="59.5207215" lon="17.8792909">
        <ele>33.3029</ele>
        <time>2011-01-17T20:57:18Z</time>
      </trkpt>
      <trkpt lat="59.5207856" lon="17.8794118">
        <ele>34.7449</ele>
        <time>2011-01-17T20:57:22Z</time>
      </trkpt>
      <trkpt lat="59.5208967" lon="17.8797037">
        <ele>35.7061</ele>
        <time>2011-01-17T20:57:27Z</time>
      </trkpt>
      <trkpt lat="59.5210246" lon="17.8799588">
        <ele>35.2255</ele>
        <time>2011-01-17T20:57:31Z</time>
      </trkpt>
      <trkpt lat="59.5211639" lon="17.8801021">
        <ele>33.7834</ele>
        <time>2011-01-17T20:57:35Z</time>
      </trkpt>
      <trkpt lat="59.5213886" lon="17.8804616">
        <ele>30.8995</ele>
        <time>2011-01-17T20:57:41Z</time>
      </trkpt>
      <trkpt lat="59.5216569" lon="17.8806132">
        <ele>22.7283</ele>
        <time>2011-01-17T20:57:46Z</time>
      </trkpt>
      <trkpt lat="59.5218" lon="17.8806509">
        <ele>19.3638</ele>
        <time>2011-01-17T20:57:49Z</time>
      </trkpt>
      <trkpt lat="59.522022" lon="17.8806896">
        <ele>15.999</ele>
        <time>2011-01-17T20:57:54Z</time>
      </trkpt>
      <trkpt lat="59.5221461" lon="17.8806926">
        <ele>15.0377</ele>
        <time>2011-01-17T20:57:57Z</time>
      </trkpt>
      <trkpt lat="59.5223244" lon="17.8807016">
        <ele>15.0377</ele>
        <time>2011-01-17T20:58:01Z</time>
      </trkpt>
      <trkpt lat="59.5224808" lon="17.8807202">
        <ele>15.0377</ele>
        <time>2011-01-17T20:58:05Z</time>
      </trkpt>
      <trkpt lat="59.5227516" lon="17.8807234">
        <ele>18.4023</ele>
        <time>2011-01-17T20:58:12Z</time>
      </trkpt>
      <trkpt lat="59.5228848" lon="17.8807499">
        <ele>21.2864</ele>
        <time>2011-01-17T20:58:17Z</time>
      </trkpt>
      <trkpt lat="59.5229997" lon="17.8807669">
        <ele>22.7283</ele>
        <time>2011-01-17T20:58:22Z</time>
      </trkpt>
      <trkpt lat="59.5231223" lon="17.8808031">
        <ele>26.5736</ele>
        <time>2011-01-17T20:58:27Z</time>
      </trkpt>
      <trkpt lat="59.5231479" lon="17.8808042">
        <ele>27.0543</ele>
        <time>2011-01-17T20:58:28Z</time>
      </trkpt>
      <trkpt lat="59.5232804" lon="17.8808622">
        <ele>29.9381</ele>
        <time>2011-01-17T20:58:33Z</time>
      </trkpt>
      <trkpt lat="59.5234079" lon="17.8808312">
        <ele>32.8223</ele>
        <time>2011-01-17T20:58:38Z</time>
      </trkpt>
      <trkpt lat="59.5234338" lon="17.8808166">
        <ele>32.8223</ele>
        <time>2011-01-17T20:58:39Z</time>
      </trkpt>
      <trkpt lat="59.523582" lon="17.8807309">
        <ele>36.6675</ele>
        <time>2011-01-17T20:58:46Z</time>
      </trkpt>
      <trkpt lat="59.5236882" lon="17.8807129">
        <ele>37.1481</ele>
        <time>2011-01-17T20:58:51Z</time>
      </trkpt>
      <trkpt lat="59.5237846" lon="17.880683">
        <ele>37.6287</ele>
        <time>2011-01-17T20:58:55Z</time>
      </trkpt>
      <trkpt lat="59.5239359" lon="17.8805177">
        <ele>39.5513</ele>
        <time>2011-01-17T20:59:01Z</time>
      </trkpt>
      <trkpt lat="59.5240322" lon="17.8803904">
        <ele>40.0321</ele>
        <time>2011-01-17T20:59:06Z</time>
      </trkpt>
      <trkpt lat="59.5241257" lon="17.8802601">
        <ele>39.5513</ele>
        <time>2011-01-17T20:59:12Z</time>
      </trkpt>
      <trkpt lat="59.5242436" lon="17.8801423">
        <ele>39.0707</ele>
        <time>2011-01-17T20:59:18Z</time>
      </trkpt>
      <trkpt lat="59.5243481" lon="17.8801479">
        <ele>40.0321</ele>
        <time>2011-01-17T20:59:22Z</time>
      </trkpt>
      <trkpt lat="59.5244239" lon="17.8801831">
        <ele>38.1094</ele>
        <time>2011-01-17T20:59:26Z</time>
      </trkpt>
      <trkpt lat="59.5245901" lon="17.8802238">
        <ele>40.5128</ele>
        <time>2011-01-17T20:59:31Z</time>
      </trkpt>
      <trkpt lat="59.5247289" lon="17.8802609">
        <ele>39.5513</ele>
        <time>2011-01-17T20:59:35Z</time>
      </trkpt>
      <trkpt lat="59.5249028" lon="17.8803178">
        <ele>38.1094</ele>
        <time>2011-01-17T20:59:39Z</time>
      </trkpt>
      <trkpt lat="59.5250789" lon="17.8803593">
        <ele>40.5128</ele>
        <time>2011-01-17T20:59:43Z</time>
      </trkpt>
      <trkpt lat="59.5252546" lon="17.8803772">
        <ele>40.9934</ele>
        <time>2011-01-17T20:59:48Z</time>
      </trkpt>
      <trkpt lat="59.5253101" lon="17.8803489">
        <ele>40.9934</ele>
        <time>2011-01-17T20:59:50Z</time>
      </trkpt>
      <trkpt lat="59.5254048" lon="17.8802266">
        <ele>40.5128</ele>
        <time>2011-01-17T20:59:55Z</time>
      </trkpt>
      <trkpt lat="59.5254777" lon="17.8800646">
        <ele>40.0321</ele>
        <time>2011-01-17T21:00:00Z</time>
      </trkpt>
      <trkpt lat="59.5255277" lon="17.8798843">
        <ele>40.5128</ele>
        <time>2011-01-17T21:00:05Z</time>
      </trkpt>
      <trkpt lat="59.5255655" lon="17.8797122">
        <ele>40.9934</ele>
        <time>2011-01-17T21:00:10Z</time>
      </trkpt>
      <trkpt lat="59.5256012" lon="17.8795517">
        <ele>41.474</ele>
        <time>2011-01-17T21:00:14Z</time>
      </trkpt>
      <trkpt lat="59.5256041" lon="17.8793388">
        <ele>40.5128</ele>
        <time>2011-01-17T21:00:18Z</time>
      </trkpt>
      <trkpt lat="59.5255927" lon="17.8792932">
        <ele>40.0321</ele>
        <time>2011-01-17T21:00:19Z</time>
      </trkpt>
      <trkpt lat="59.5254752" lon="17.8789822">
        <ele>37.6287</ele>
        <time>2011-01-17T21:00:26Z</time>
      </trkpt>
      <trkpt lat="59.5253866" lon="17.8788366">
        <ele>35.2255</ele>
        <time>2011-01-17T21:00:31Z</time>
      </trkpt>
      <trkpt lat="59.5253059" lon="17.8786824">
        <ele>32.8223</ele>
        <time>2011-01-17T21:00:35Z</time>
      </trkpt>
      <trkpt lat="59.5252055" lon="17.8784295">
        <ele>29.9381</ele>
        <time>2011-01-17T21:00:39Z</time>
      </trkpt>
      <trkpt lat="59.5251338" lon="17.8781176">
        <ele>26.5736</ele>
        <time>2011-01-17T21:00:42Z</time>
      </trkpt>
      <trkpt lat="59.5249956" lon="17.8777629">
        <ele>22.7283</ele>
        <time>2011-01-17T21:00:46Z</time>
      </trkpt>
      <trkpt lat="59.5248654" lon="17.8775505">
        <ele>18.8831</ele>
        <time>2011-01-17T21:00:51Z</time>
      </trkpt>
      <trkpt lat="59.5248075" lon="17.8773324">
        <ele>15.0377</ele>
        <time>2011-01-17T21:00:57Z</time>
      </trkpt>
      <trkpt lat="59.5247677" lon="17.8770002">
        <ele>11.1925</ele>
        <time>2011-01-17T21:01:01Z</time>
      </trkpt>
      <trkpt lat="59.5247171" lon="17.8767995">
        <ele>11.6732</ele>
        <time>2011-01-17T21:01:03Z</time>
      </trkpt>
      <trkpt lat="59.5245896" lon="17.8761999">
        <ele>7.82788</ele>
        <time>2011-01-17T21:01:08Z</time>
      </trkpt>
      <trkpt lat="59.5245675" lon="17.8758997">
        <ele>6.86646</ele>
        <time>2011-01-17T21:01:11Z</time>
      </trkpt>
      <trkpt lat="59.524556" lon="17.8755977">
        <ele>6.38586</ele>
        <time>2011-01-17T21:01:14Z</time>
      </trkpt>
      <trkpt lat="59.5244522" lon="17.875162">
        <ele>3.02124</ele>
        <time>2011-01-17T21:01:18Z</time>
      </trkpt>
      <trkpt lat="59.5244023" lon="17.8749718">
        <ele>0.618042</ele>
        <time>2011-01-17T21:01:20Z</time>
      </trkpt>
      <trkpt lat="59.5243751" lon="17.8748766">
        <ele>2.06006</ele>
        <time>2011-01-17T21:01:21Z</time>
      </trkpt>
      <trkpt lat="59.5242164" lon="17.8746062">
        <ele>0.618042</ele>
        <time>2011-01-17T21:01:25Z</time>
      </trkpt>
      <trkpt lat="59.5240476" lon="17.8744822">
        <ele>5.90527</ele>
        <time>2011-01-17T21:01:29Z</time>
      </trkpt>
      <trkpt lat="59.5239097" lon="17.8743276">
        <ele>5.42456</ele>
        <time>2011-01-17T21:01:33Z</time>
      </trkpt>
      <trkpt lat="59.523823" lon="17.8741719">
        <ele>6.38586</ele>
        <time>2011-01-17T21:01:36Z</time>
      </trkpt>
      <trkpt lat="59.5236223" lon="17.8736629">
        <ele>8.78918</ele>
        <time>2011-01-17T21:01:44Z</time>
      </trkpt>
      <trkpt lat="59.5234919" lon="17.8735095">
        <ele>8.30859</ele>
        <time>2011-01-17T21:01:49Z</time>
      </trkpt>
      <trkpt lat="59.5233666" lon="17.8733625">
        <ele>5.90527</ele>
        <time>2011-01-17T21:01:53Z</time>
      </trkpt>
      <trkpt lat="59.5232282" lon="17.8731966">
        <ele>4.94385</ele>
        <time>2011-01-17T21:01:58Z</time>
      </trkpt>
      <trkpt lat="59.5231696" lon="17.873059">
        <ele>3.50195</ele>
        <time>2011-01-17T21:02:01Z</time>
      </trkpt>
      <trkpt lat="59.5230856" lon="17.8728482">
        <ele>3.50195</ele>
        <time>2011-01-17T21:02:06Z</time>
      </trkpt>
      <trkpt lat="59.5229469" lon="17.872691">
        <ele>2.54065</ele>
        <time>2011-01-17T21:02:12Z</time>
      </trkpt>
      <trkpt lat="59.5228297" lon="17.8726497">
        <ele>2.54065</ele>
        <time>2011-01-17T21:02:16Z</time>
      </trkpt>
      <trkpt lat="59.5227048" lon="17.8725802">
        <ele>2.06006</ele>
        <time>2011-01-17T21:02:21Z</time>
      </trkpt>
      <trkpt lat="59.5226154" lon="17.8725026">
        <ele>2.06006</ele>
        <time>2011-01-17T21:02:25Z</time>
      </trkpt>
      <trkpt lat="59.5225682" lon="17.8724782">
        <ele>1.09863</ele>
        <time>2011-01-17T21:02:27Z</time>
      </trkpt>
      <trkpt lat="59.5224397" lon="17.8724905">
        <ele>0</ele>
        <time>2011-01-17T21:02:32Z</time>
      </trkpt>
      <trkpt lat="59.522333" lon="17.8724931">
        <ele>0</ele>
        <time>2011-01-17T21:02:37Z</time>
      </trkpt>
      <trkpt lat="59.5222726" lon="17.8725251">
        <ele>0</ele>
        <time>2011-01-17T21:02:40Z</time>
      </trkpt>
      <trkpt lat="59.5221726" lon="17.8725796">
        <ele>0</ele>
        <time>2011-01-17T21:02:45Z</time>
      </trkpt>
      <trkpt lat="59.5220943" lon="17.8726041">
        <ele>0</ele>
        <time>2011-01-17T21:02:49Z</time>
      </trkpt>
      <trkpt lat="59.5220599" lon="17.872616">
        <ele>0</ele>
        <time>2011-01-17T21:02:51Z</time>
      </trkpt>
      <trkpt lat="59.5219089" lon="17.8726445">
        <ele>0</ele>
        <time>2011-01-17T21:02:57Z</time>
      </trkpt>
      <trkpt lat="59.5218609" lon="17.8726598">
        <ele>0</ele>
        <time>2011-01-17T21:02:59Z</time>
      </trkpt>
      <trkpt lat="59.5217602" lon="17.8726977">
        <ele>0</ele>
        <time>2011-01-17T21:03:03Z</time>
      </trkpt>
      <trkpt lat="59.5216335" lon="17.8727386">
        <ele>1.09863</ele>
        <time>2011-01-17T21:03:08Z</time>
      </trkpt>
      <trkpt lat="59.52145" lon="17.8727671">
        <ele>5.90527</ele>
        <time>2011-01-17T21:03:13Z</time>
      </trkpt>
      <trkpt lat="59.5213578" lon="17.8727604">
        <ele>4.94385</ele>
        <time>2011-01-17T21:03:16Z</time>
      </trkpt>
      <trkpt lat="59.5212466" lon="17.8726647">
        <ele>6.38586</ele>
        <time>2011-01-17T21:03:21Z</time>
      </trkpt>
      <trkpt lat="59.5212283" lon="17.8726353">
        <ele>6.38586</ele>
        <time>2011-01-17T21:03:22Z</time>
      </trkpt>
      <trkpt lat="59.5211168" lon="17.8725456">
        <ele>6.86646</ele>
        <time>2011-01-17T21:03:27Z</time>
      </trkpt>
      <trkpt lat="59.5210964" lon="17.8725335">
        <ele>6.38586</ele>
        <time>2011-01-17T21:03:28Z</time>
      </trkpt>
      <trkpt lat="59.5210572" lon="17.8725071">
        <ele>6.38586</ele>
        <time>2011-01-17T21:03:30Z</time>
      </trkpt>
      <trkpt lat="59.520879" lon="17.8725129">
        <ele>6.86646</ele>
        <time>2011-01-17T21:03:36Z</time>
      </trkpt>
      <trkpt lat="59.5207387" lon="17.8725647">
        <ele>8.30859</ele>
        <time>2011-01-17T21:03:40Z</time>
      </trkpt>
      <trkpt lat="59.5206336" lon="17.8726103">
        <ele>7.82788</ele>
        <time>2011-01-17T21:03:44Z</time>
      </trkpt>
      <trkpt lat="59.5205144" lon="17.8726752">
        <ele>6.86646</ele>
        <time>2011-01-17T21:03:48Z</time>
      </trkpt>
      <trkpt lat="59.5203425" lon="17.8728288">
        <ele>6.38586</ele>
        <time>2011-01-17T21:03:54Z</time>
      </trkpt>
      <trkpt lat="59.5202346" lon="17.8729826">
        <ele>5.90527</ele>
        <time>2011-01-17T21:03:58Z</time>
      </trkpt>
      <trkpt lat="59.5201308" lon="17.8730998">
        <ele>6.86646</ele>
        <time>2011-01-17T21:04:03Z</time>
      </trkpt>
      <trkpt lat="59.5200253" lon="17.8732501">
        <ele>9.75061</ele>
        <time>2011-01-17T21:04:07Z</time>
      </trkpt>
      <trkpt lat="59.5198425" lon="17.8734943">
        <ele>11.1925</ele>
        <time>2011-01-17T21:04:12Z</time>
      </trkpt>
      <trkpt lat="59.5197118" lon="17.8736405">
        <ele>13.5958</ele>
        <time>2011-01-17T21:04:16Z</time>
      </trkpt>
      <trkpt lat="59.5196306" lon="17.8737303">
        <ele>14.557</ele>
        <time>2011-01-17T21:04:20Z</time>
      </trkpt>
      <trkpt lat="59.5196112" lon="17.8737531">
        <ele>15.0377</ele>
        <time>2011-01-17T21:04:22Z</time>
      </trkpt>
      <trkpt lat="59.5194948" lon="17.873983">
        <ele>15.5184</ele>
        <time>2011-01-17T21:04:28Z</time>
      </trkpt>
      <trkpt lat="59.5194477" lon="17.8740738">
        <ele>16.4797</ele>
        <time>2011-01-17T21:04:31Z</time>
      </trkpt>
      <trkpt lat="59.5193918" lon="17.8742027">
        <ele>17.9218</ele>
        <time>2011-01-17T21:04:35Z</time>
      </trkpt>
      <trkpt lat="59.5193281" lon="17.8743923">
        <ele>20.325</ele>
        <time>2011-01-17T21:04:41Z</time>
      </trkpt>
      <trkpt lat="59.5192949" lon="17.8745865">
        <ele>24.1703</ele>
        <time>2011-01-17T21:04:46Z</time>
      </trkpt>
      <trkpt lat="59.5192626" lon="17.8748117">
        <ele>25.1317</ele>
        <time>2011-01-17T21:04:51Z</time>
      </trkpt>
      <trkpt lat="59.5192634" lon="17.8748762">
        <ele>25.6123</ele>
        <time>2011-01-17T21:04:53Z</time>
      </trkpt>
      <trkpt lat="59.5192792" lon="17.8749266">
        <ele>26.5736</ele>
        <time>2011-01-17T21:04:56Z</time>
      </trkpt>
      <trkpt lat="59.5193629" lon="17.8749862">
        <ele>26.5736</ele>
        <time>2011-01-17T21:05:02Z</time>
      </trkpt>
      <trkpt lat="59.5194368" lon="17.8750626">
        <ele>28.0155</ele>
        <time>2011-01-17T21:05:07Z</time>
      </trkpt>
      <trkpt lat="59.5195006" lon="17.8750665">
        <ele>28.9769</ele>
        <time>2011-01-17T21:05:12Z</time>
      </trkpt>
      <trkpt lat="59.5195362" lon="17.8750603">
        <ele>30.4188</ele>
        <time>2011-01-17T21:05:14Z</time>
      </trkpt>
      <trkpt lat="59.5195963" lon="17.8750299">
        <ele>32.8223</ele>
        <time>2011-01-17T21:05:18Z</time>
      </trkpt>
      <trkpt lat="59.5196672" lon="17.8749237">
        <ele>36.1868</ele>
        <time>2011-01-17T21:05:23Z</time>
      </trkpt>
      <trkpt lat="59.5196788" lon="17.8748999">
        <ele>36.6675</ele>
        <time>2011-01-17T21:05:24Z</time>
      </trkpt>
      <trkpt lat="59.5198078" lon="17.874742">
        <ele>37.1481</ele>
        <time>2011-01-17T21:05:31Z</time>
      </trkpt>
      <trkpt lat="59.5198974" lon="17.8747101">
        <ele>38.5901</ele>
        <time>2011-01-17T21:05:36Z</time>
      </trkpt>
      <trkpt lat="59.5199985" lon="17.8746858">
        <ele>39.0707</ele>
        <time>2011-01-17T21:05:42Z</time>
      </trkpt>
      <trkpt lat="59.5200891" lon="17.874683">
        <ele>41.474</ele>
        <time>2011-01-17T21:05:47Z</time>
      </trkpt>
      <trkpt lat="59.52016" lon="17.8746731">
        <ele>44.358</ele>
        <time>2011-01-17T21:05:51Z</time>
      </trkpt>
      <trkpt lat="59.520216" lon="17.8747109">
        <ele>45.3192</ele>
        <time>2011-01-17T21:05:54Z</time>
      </trkpt>
      <trkpt lat="59.5203321" lon="17.8747553">
        <ele>48.2034</ele>
        <time>2011-01-17T21:06:01Z</time>
      </trkpt>
      <trkpt lat="59.5204258" lon="17.8747573">
        <ele>47.2418</ele>
        <time>2011-01-17T21:06:06Z</time>
      </trkpt>
      <trkpt lat="59.5204827" lon="17.8747616">
        <ele>47.2418</ele>
        <time>2011-01-17T21:06:10Z</time>
      </trkpt>
      <trkpt lat="59.5205718" lon="17.8747533">
        <ele>51.0872</ele>
        <time>2011-01-17T21:06:16Z</time>
      </trkpt>
      <trkpt lat="59.5206619" lon="17.8747041">
        <ele>51.5679</ele>
        <time>2011-01-17T21:06:21Z</time>
      </trkpt>
      <trkpt lat="59.520763" lon="17.8746231">
        <ele>50.126</ele>
        <time>2011-01-17T21:06:27Z</time>
      </trkpt>
      <trkpt lat="59.520864" lon="17.8746016">
        <ele>50.6066</ele>
        <time>2011-01-17T21:06:33Z</time>
      </trkpt>
      <trkpt lat="59.520875" lon="17.8745942">
        <ele>51.0872</ele>
        <time>2011-01-17T21:06:34Z</time>
      </trkpt>
      <trkpt lat="59.5209096" lon="17.8745991">
        <ele>51.0872</ele>
        <time>2011-01-17T21:06:36Z</time>
      </trkpt>
      <trkpt lat="59.521004" lon="17.8746394">
        <ele>48.2034</ele>
        <time>2011-01-17T21:06:41Z</time>
      </trkpt>
      <trkpt lat="59.5211011" lon="17.8746855">
        <ele>47.2418</ele>
        <time>2011-01-17T21:06:46Z</time>
      </trkpt>
      <trkpt lat="59.5212163" lon="17.8747238">
        <ele>44.8386</ele>
        <time>2011-01-17T21:06:52Z</time>
      </trkpt>
      <trkpt lat="59.5212397" lon="17.8747321">
        <ele>44.8386</ele>
        <time>2011-01-17T21:06:53Z</time>
      </trkpt>
      <trkpt lat="59.5213467" lon="17.8747232">
        <ele>46.2806</ele>
        <time>2011-01-17T21:06:58Z</time>
      </trkpt>
      <trkpt lat="59.5214022" lon="17.8747222">
        <ele>46.2806</ele>
        <time>2011-01-17T21:07:01Z</time>
      </trkpt>
      <trkpt lat="59.5215017" lon="17.8747191">
        <ele>45.7999</ele>
        <time>2011-01-17T21:07:06Z</time>
      </trkpt>
      <trkpt lat="59.5216037" lon="17.8747802">
        <ele>43.8773</ele>
        <time>2011-01-17T21:07:11Z</time>
      </trkpt>
      <trkpt lat="59.5217218" lon="17.8749029">
        <ele>41.9547</ele>
        <time>2011-01-17T21:07:16Z</time>
      </trkpt>
      <trkpt lat="59.5217432" lon="17.8749275">
        <ele>41.474</ele>
        <time>2011-01-17T21:07:17Z</time>
      </trkpt>
      <trkpt lat="59.5218573" lon="17.8749935">
        <ele>40.0321</ele>
        <time>2011-01-17T21:07:22Z</time>
      </trkpt>
      <trkpt lat="59.5219206" lon="17.8750061">
        <ele>40.9934</ele>
        <time>2011-01-17T21:07:25Z</time>
      </trkpt>
      <trkpt lat="59.5219607" lon="17.875001">
        <ele>40.5128</ele>
        <time>2011-01-17T21:07:27Z</time>
      </trkpt>
      <trkpt lat="59.5220191" lon="17.8749867">
        <ele>40.9934</ele>
        <time>2011-01-17T21:07:29Z</time>
      </trkpt>
      <trkpt lat="59.5221693" lon="17.8748077">
        <ele>43.3966</ele>
        <time>2011-01-17T21:07:34Z</time>
      </trkpt>
      <trkpt lat="59.5222912" lon="17.8745564">
        <ele>46.2806</ele>
        <time>2011-01-17T21:07:39Z</time>
      </trkpt>
      <trkpt lat="59.522321" lon="17.8743151">
        <ele>44.358</ele>
        <time>2011-01-17T21:07:43Z</time>
      </trkpt>
      <trkpt lat="59.522241" lon="17.8739291">
        <ele>41.474</ele>
        <time>2011-01-17T21:07:48Z</time>
      </trkpt>
      <trkpt lat="59.5222032" lon="17.873752">
        <ele>40.0321</ele>
        <time>2011-01-17T21:07:50Z</time>
      </trkpt>
      <trkpt lat="59.522002" lon="17.873383">
        <ele>34.2642</ele>
        <time>2011-01-17T21:07:55Z</time>
      </trkpt>
      <trkpt lat="59.5216492" lon="17.8730644">
        <ele>28.0155</ele>
        <time>2011-01-17T21:08:00Z</time>
      </trkpt>
      <trkpt lat="59.5215011" lon="17.8729133">
        <ele>26.0929</ele>
        <time>2011-01-17T21:08:02Z</time>
      </trkpt>
      <trkpt lat="59.521286" lon="17.8725928">
        <ele>20.325</ele>
        <time>2011-01-17T21:08:06Z</time>
      </trkpt>
      <trkpt lat="59.5211618" lon="17.8724414">
        <ele>17.9218</ele>
        <time>2011-01-17T21:08:08Z</time>
      </trkpt>
      <trkpt lat="59.5208197" lon="17.8722467">
        <ele>13.5958</ele>
        <time>2011-01-17T21:08:13Z</time>
      </trkpt>
      <trkpt lat="59.5206982" lon="17.8723243">
        <ele>10.7118</ele>
        <time>2011-01-17T21:08:16Z</time>
      </trkpt>
      <trkpt lat="59.5206411" lon="17.8723616">
        <ele>8.78918</ele>
        <time>2011-01-17T21:08:18Z</time>
      </trkpt>
      <trkpt lat="59.5205024" lon="17.8725186">
        <ele>7.82788</ele>
        <time>2011-01-17T21:08:23Z</time>
      </trkpt>
      <trkpt lat="59.5203663" lon="17.8726756">
        <ele>5.90527</ele>
        <time>2011-01-17T21:08:28Z</time>
      </trkpt>
      <trkpt lat="59.5202765" lon="17.8727967">
        <ele>5.42456</ele>
        <time>2011-01-17T21:08:32Z</time>
      </trkpt>
      <trkpt lat="59.5202559" lon="17.8728373">
        <ele>5.42456</ele>
        <time>2011-01-17T21:08:33Z</time>
      </trkpt>
      <trkpt lat="59.5201881" lon="17.8729361">
        <ele>7.82788</ele>
        <time>2011-01-17T21:08:37Z</time>
      </trkpt>
      <trkpt lat="59.520076" lon="17.873061">
        <ele>8.30859</ele>
        <time>2011-01-17T21:08:42Z</time>
      </trkpt>
      <trkpt lat="59.519972" lon="17.8731644">
        <ele>9.2699</ele>
        <time>2011-01-17T21:08:46Z</time>
      </trkpt>
      <trkpt lat="59.5198526" lon="17.8732858">
        <ele>9.75061</ele>
        <time>2011-01-17T21:08:50Z</time>
      </trkpt>
      <trkpt lat="59.5197123" lon="17.8734562">
        <ele>11.6732</ele>
        <time>2011-01-17T21:08:54Z</time>
      </trkpt>
      <trkpt lat="59.5196255" lon="17.8735949">
        <ele>14.0764</ele>
        <time>2011-01-17T21:08:58Z</time>
      </trkpt>
      <trkpt lat="59.5195099" lon="17.8737889">
        <ele>15.0377</ele>
        <time>2011-01-17T21:09:04Z</time>
      </trkpt>
      <trkpt lat="59.5194501" lon="17.8739431">
        <ele>16.9604</ele>
        <time>2011-01-17T21:09:08Z</time>
      </trkpt>
      <trkpt lat="59.5194162" lon="17.8739902">
        <ele>17.9218</ele>
        <time>2011-01-17T21:09:10Z</time>
      </trkpt>
      <trkpt lat="59.5193664" lon="17.8741259">
        <ele>19.8444</ele>
        <time>2011-01-17T21:09:15Z</time>
      </trkpt>
      <trkpt lat="59.5193099" lon="17.8742678">
        <ele>20.325</ele>
        <time>2011-01-17T21:09:20Z</time>
      </trkpt>
      <trkpt lat="59.5192469" lon="17.8744643">
        <ele>21.767</ele>
        <time>2011-01-17T21:09:26Z</time>
      </trkpt>
      <trkpt lat="59.5192115" lon="17.8746212">
        <ele>23.209</ele>
        <time>2011-01-17T21:09:30Z</time>
      </trkpt>
      <trkpt lat="59.5191504" lon="17.8748132">
        <ele>22.7283</ele>
        <time>2011-01-17T21:09:36Z</time>
      </trkpt>
      <trkpt lat="59.5190687" lon="17.8750143">
        <ele>22.7283</ele>
        <time>2011-01-17T21:09:41Z</time>
      </trkpt>
      <trkpt lat="59.5189246" lon="17.8751637">
        <ele>21.2864</ele>
        <time>2011-01-17T21:09:47Z</time>
      </trkpt>
      <trkpt lat="59.5188069" lon="17.8753714">
        <ele>21.767</ele>
        <time>2011-01-17T21:09:52Z</time>
      </trkpt>
      <trkpt lat="59.518695" lon="17.8756047">
        <ele>20.8057</ele>
        <time>2011-01-17T21:09:57Z</time>
      </trkpt>
      <trkpt lat="59.518599" lon="17.8758063">
        <ele>17.9218</ele>
        <time>2011-01-17T21:10:00Z</time>
      </trkpt>
      <trkpt lat="59.518468" lon="17.8760896">
        <ele>14.557</ele>
        <time>2011-01-17T21:10:05Z</time>
      </trkpt>
      <trkpt lat="59.5184216" lon="17.8762203">
        <ele>13.1151</ele>
        <time>2011-01-17T21:10:07Z</time>
      </trkpt>
      <trkpt lat="59.5183898" lon="17.8764839">
        <ele>11.6732</ele>
        <time>2011-01-17T21:10:12Z</time>
      </trkpt>
      <trkpt lat="59.5184283" lon="17.8766485">
        <ele>12.6344</ele>
        <time>2011-01-17T21:10:16Z</time>
      </trkpt>
      <trkpt lat="59.518447" lon="17.8767461">
        <ele>13.1151</ele>
        <time>2011-01-17T21:10:18Z</time>
      </trkpt>
      <trkpt lat="59.5185584" lon="17.8771107">
        <ele>13.1151</ele>
        <time>2011-01-17T21:10:24Z</time>
      </trkpt>
      <trkpt lat="59.5186532" lon="17.8774723">
        <ele>13.5958</ele>
        <time>2011-01-17T21:10:30Z</time>
      </trkpt>
      <trkpt lat="59.5187081" lon="17.8777146">
        <ele>11.6732</ele>
        <time>2011-01-17T21:10:35Z</time>
      </trkpt>
      <trkpt lat="59.518766" lon="17.8779588">
        <ele>12.1538</ele>
        <time>2011-01-17T21:10:40Z</time>
      </trkpt>
      <trkpt lat="59.5188231" lon="17.8781189">
        <ele>12.6344</ele>
        <time>2011-01-17T21:10:44Z</time>
      </trkpt>
      <trkpt lat="59.5188841" lon="17.8782743">
        <ele>13.1151</ele>
        <time>2011-01-17T21:10:48Z</time>
      </trkpt>
      <trkpt lat="59.5189444" lon="17.8784285">
        <ele>14.0764</ele>
        <time>2011-01-17T21:10:52Z</time>
      </trkpt>
      <trkpt lat="59.5190199" lon="17.8786212">
        <ele>16.9604</ele>
        <time>2011-01-17T21:10:56Z</time>
      </trkpt>
      <trkpt lat="59.5191306" lon="17.8788181">
        <ele>20.325</ele>
        <time>2011-01-17T21:11:00Z</time>
      </trkpt>
      <trkpt lat="59.5192883" lon="17.879007">
        <ele>21.767</ele>
        <time>2011-01-17T21:11:04Z</time>
      </trkpt>
      <trkpt lat="59.5193676" lon="17.879089">
        <ele>22.2476</ele>
        <time>2011-01-17T21:11:06Z</time>
      </trkpt>
      <trkpt lat="59.5194569" lon="17.8791869">
        <ele>23.209</ele>
        <time>2011-01-17T21:11:09Z</time>
      </trkpt>
      <trkpt lat="59.5195602" lon="17.8792299">
        <ele>24.1703</ele>
        <time>2011-01-17T21:11:14Z</time>
      </trkpt>
      <trkpt lat="59.5195841" lon="17.8792464">
        <ele>24.651</ele>
        <time>2011-01-17T21:11:15Z</time>
      </trkpt>
      <trkpt lat="59.5197029" lon="17.8793093">
        <ele>26.0929</ele>
        <time>2011-01-17T21:11:21Z</time>
      </trkpt>
      <trkpt lat="59.5197881" lon="17.8793512">
        <ele>27.0543</ele>
        <time>2011-01-17T21:11:25Z</time>
      </trkpt>
      <trkpt lat="59.5199222" lon="17.8793247">
        <ele>29.4575</ele>
        <time>2011-01-17T21:11:31Z</time>
      </trkpt>
      <trkpt lat="59.5200165" lon="17.8792662">
        <ele>32.3416</ele>
        <time>2011-01-17T21:11:36Z</time>
      </trkpt>
      <trkpt lat="59.5200326" lon="17.8792546">
        <ele>32.8223</ele>
        <time>2011-01-17T21:11:37Z</time>
      </trkpt>
      <trkpt lat="59.5200916" lon="17.8792057">
        <ele>33.7834</ele>
        <time>2011-01-17T21:11:42Z</time>
      </trkpt>
      <trkpt lat="59.5201565" lon="17.8791782">
        <ele>34.7449</ele>
        <time>2011-01-17T21:11:47Z</time>
      </trkpt>
      <trkpt lat="59.5202118" lon="17.8791155">
        <ele>36.1868</ele>
        <time>2011-01-17T21:11:50Z</time>
      </trkpt>
      <trkpt lat="59.5203321" lon="17.8790149">
        <ele>37.6287</ele>
        <time>2011-01-17T21:11:56Z</time>
      </trkpt>
      <trkpt lat="59.5203696" lon="17.8789896">
        <ele>37.6287</ele>
        <time>2011-01-17T21:11:58Z</time>
      </trkpt>
      <trkpt lat="59.5204841" lon="17.8790138">
        <ele>37.6287</ele>
        <time>2011-01-17T21:12:04Z</time>
      </trkpt>
      <trkpt lat="59.5205696" lon="17.8790606">
        <ele>37.1481</ele>
        <time>2011-01-17T21:12:08Z</time>
      </trkpt>
      <trkpt lat="59.5206738" lon="17.8791854">
        <ele>36.6675</ele>
        <time>2011-01-17T21:12:14Z</time>
      </trkpt>
      <trkpt lat="59.5207551" lon="17.8793603">
        <ele>36.1868</ele>
        <time>2011-01-17T21:12:19Z</time>
      </trkpt>
      <trkpt lat="59.5207661" lon="17.879388">
        <ele>36.1868</ele>
        <time>2011-01-17T21:12:20Z</time>
      </trkpt>
      <trkpt lat="59.5208346" lon="17.8796172">
        <ele>35.7061</ele>
        <time>2011-01-17T21:12:24Z</time>
      </trkpt>
      <trkpt lat="59.5208665" lon="17.8797963">
        <ele>34.7449</ele>
        <time>2011-01-17T21:12:26Z</time>
      </trkpt>
      <trkpt lat="59.521067" lon="17.880085">
        <ele>35.2255</ele>
        <time>2011-01-17T21:12:31Z</time>
      </trkpt>
      <trkpt lat="59.5211808" lon="17.8802608">
        <ele>34.7449</ele>
        <time>2011-01-17T21:12:34Z</time>
      </trkpt>
      <trkpt lat="59.5214763" lon="17.8805244">
        <ele>32.3416</ele>
        <time>2011-01-17T21:12:39Z</time>
      </trkpt>
      <trkpt lat="59.5217088" lon="17.8806359">
        <ele>31.8607</ele>
        <time>2011-01-17T21:12:43Z</time>
      </trkpt>
      <trkpt lat="59.5218761" lon="17.8806709">
        <ele>28.9769</ele>
        <time>2011-01-17T21:12:47Z</time>
      </trkpt>
      <trkpt lat="59.5219606" lon="17.8807626">
        <ele>27.0543</ele>
        <time>2011-01-17T21:12:50Z</time>
      </trkpt>
      <trkpt lat="59.5219886" lon="17.8808029">
        <ele>26.0929</ele>
        <time>2011-01-17T21:12:51Z</time>
      </trkpt>
      <trkpt lat="59.5221813" lon="17.8810773">
        <ele>23.6896</ele>
        <time>2011-01-17T21:12:57Z</time>
      </trkpt>
      <trkpt lat="59.5223674" lon="17.881446">
        <ele>21.767</ele>
        <time>2011-01-17T21:13:04Z</time>
      </trkpt>
      <trkpt lat="59.5224641" lon="17.8815513">
        <ele>22.2476</ele>
        <time>2011-01-17T21:13:08Z</time>
      </trkpt>
      <trkpt lat="59.5224872" lon="17.881558">
        <ele>21.767</ele>
        <time>2011-01-17T21:13:09Z</time>
      </trkpt>
    </trkseg>
  </trk>
</gpx>